<?xml version="1.0" encoding="utf-8"?>
<gpx xmlns:xsi="http://www.w3.org/2001/XMLSchema-instance" xmlns:xsd="http://www.w3.org/2001/XMLSchema" version="1.1" creator="Shapelink.com" xmlns="http://www.topografix.com/GPX/1/1" xmlns:gpxtpx="http://www.garmin.com/xmlschemas/TrackPointExtension/v1">
  <metadata>
    <name>Löpning 6.23 km, 2011-03-21</name>
    <desc></desc>
    <author><name>Jojje Borssén</name></author> 
    <time>2011-03-21T08:32:20Z</time>
  </metadata>
  <trk>
    <name>Löpning 6.23 km, 2011-03-21</name>
    <trkseg>
      <trkpt lat="37.1786261396" lon="-7.44490357607">
        <ele>11.6</ele>
        <time>2011-03-21T08:32:20Z</time>
      </trkpt>
      <trkpt lat="37.1785772732" lon="-7.44489569708">
        <ele>11.6</ele>
        <time>2011-03-21T08:32:23Z</time>
      </trkpt>
      <trkpt lat="37.1785426559" lon="-7.44489008121">
        <ele>11.6</ele>
        <time>2011-03-21T08:32:25Z</time>
      </trkpt>
      <trkpt lat="37.1784568253" lon="-7.44489158995">
        <ele>11.6</ele>
        <time>2011-03-21T08:32:29Z</time>
      </trkpt>
      <trkpt lat="37.1783949668" lon="-7.44489913366">
        <ele>11.6</ele>
        <time>2011-03-21T08:32:32Z</time>
      </trkpt>
      <trkpt lat="37.1783340304" lon="-7.44490223496">
        <ele>11.6</ele>
        <time>2011-03-21T08:32:35Z</time>
      </trkpt>
      <trkpt lat="37.178303688" lon="-7.44490516863">
        <ele>11.6</ele>
        <time>2011-03-21T08:32:37Z</time>
      </trkpt>
      <trkpt lat="37.1782751057" lon="-7.4447718126">
        <ele>11.6</ele>
        <time>2011-03-21T08:32:45Z</time>
      </trkpt>
      <trkpt lat="37.1782669752" lon="-7.44473149566">
        <ele>11.6</ele>
        <time>2011-03-21T08:32:47Z</time>
      </trkpt>
      <trkpt lat="37.1782464396" lon="-7.44464365335">
        <ele>11.6</ele>
        <time>2011-03-21T08:32:50Z</time>
      </trkpt>
      <trkpt lat="37.1782174382" lon="-7.44457693342">
        <ele>11.6</ele>
        <time>2011-03-21T08:32:54Z</time>
      </trkpt>
      <trkpt lat="37.1781974055" lon="-7.44450996204">
        <ele>11.6</ele>
        <time>2011-03-21T08:32:57Z</time>
      </trkpt>
      <trkpt lat="37.1781589325" lon="-7.44444776835">
        <ele>11.6</ele>
        <time>2011-03-21T08:33:00Z</time>
      </trkpt>
      <trkpt lat="37.1781061266" lon="-7.44441113944">
        <ele>11.6</ele>
        <time>2011-03-21T08:33:03Z</time>
      </trkpt>
      <trkpt lat="37.1780853395" lon="-7.44439571675">
        <ele>11.6</ele>
        <time>2011-03-21T08:33:04Z</time>
      </trkpt>
      <trkpt lat="37.1780045379" lon="-7.44437727657">
        <ele>11.6</ele>
        <time>2011-03-21T08:33:08Z</time>
      </trkpt>
      <trkpt lat="37.1779890314" lon="-7.4443827248">
        <ele>11.6</ele>
        <time>2011-03-21T08:33:09Z</time>
      </trkpt>
      <trkpt lat="37.177937818" lon="-7.4443875863">
        <ele>11.6</ele>
        <time>2011-03-21T08:33:12Z</time>
      </trkpt>
      <trkpt lat="37.1778909632" lon="-7.44439999152">
        <ele>11.6</ele>
        <time>2011-03-21T08:33:15Z</time>
      </trkpt>
      <trkpt lat="37.1778544181" lon="-7.44440669704">
        <ele>11.6</ele>
        <time>2011-03-21T08:33:18Z</time>
      </trkpt>
      <trkpt lat="37.1778112513" lon="-7.4444149113">
        <ele>11.6</ele>
        <time>2011-03-21T08:33:21Z</time>
      </trkpt>
      <trkpt lat="37.1777741195" lon="-7.44441348637">
        <ele>11.6</ele>
        <time>2011-03-21T08:33:25Z</time>
      </trkpt>
      <trkpt lat="37.1777358142" lon="-7.44442371229">
        <ele>11.6</ele>
        <time>2011-03-21T08:33:29Z</time>
      </trkpt>
      <trkpt lat="37.1776927313" lon="-7.44444097901">
        <ele>11.6</ele>
        <time>2011-03-21T08:33:33Z</time>
      </trkpt>
      <trkpt lat="37.1776504027" lon="-7.44446017356">
        <ele>11.6</ele>
        <time>2011-03-21T08:33:36Z</time>
      </trkpt>
      <trkpt lat="37.1776014524" lon="-7.44445757517">
        <ele>11.6</ele>
        <time>2011-03-21T08:33:39Z</time>
      </trkpt>
      <trkpt lat="37.1775468862" lon="-7.44446319104">
        <ele>11.6</ele>
        <time>2011-03-21T08:33:42Z</time>
      </trkpt>
      <trkpt lat="37.1774541824" lon="-7.44446863928">
        <ele>11.6</ele>
        <time>2011-03-21T08:33:47Z</time>
      </trkpt>
      <trkpt lat="37.1773950062" lon="-7.44445824572">
        <ele>11.6</ele>
        <time>2011-03-21T08:33:50Z</time>
      </trkpt>
      <trkpt lat="37.1773285377" lon="-7.44445346804">
        <ele>11.6</ele>
        <time>2011-03-21T08:33:53Z</time>
      </trkpt>
      <trkpt lat="37.1772668469" lon="-7.44444877417">
        <ele>11.6</ele>
        <time>2011-03-21T08:33:56Z</time>
      </trkpt>
      <trkpt lat="37.17720985" lon="-7.44445447387">
        <ele>11.6</ele>
        <time>2011-03-21T08:33:59Z</time>
      </trkpt>
      <trkpt lat="37.1771508414" lon="-7.44446788491">
        <ele>11.6</ele>
        <time>2011-03-21T08:34:02Z</time>
      </trkpt>
      <trkpt lat="37.1770904079" lon="-7.44447333314">
        <ele>11.6</ele>
        <time>2011-03-21T08:34:05Z</time>
      </trkpt>
      <trkpt lat="37.1770339977" lon="-7.44447291405">
        <ele>11.6</ele>
        <time>2011-03-21T08:34:08Z</time>
      </trkpt>
      <trkpt lat="37.1769842093" lon="-7.44448096067">
        <ele>11.6</ele>
        <time>2011-03-21T08:34:11Z</time>
      </trkpt>
      <trkpt lat="37.1769193333" lon="-7.44447509334">
        <ele>11.6</ele>
        <time>2011-03-21T08:34:14Z</time>
      </trkpt>
      <trkpt lat="37.1768526134" lon="-7.44445673698">
        <ele>11.6</ele>
        <time>2011-03-21T08:34:17Z</time>
      </trkpt>
      <trkpt lat="37.1767920123" lon="-7.44444106283">
        <ele>11.6</ele>
        <time>2011-03-21T08:34:20Z</time>
      </trkpt>
      <trkpt lat="37.1767322493" lon="-7.44441541421">
        <ele>11.2</ele>
        <time>2011-03-21T08:34:23Z</time>
      </trkpt>
      <trkpt lat="37.1766794434" lon="-7.44437937204">
        <ele>10.8</ele>
        <time>2011-03-21T08:34:26Z</time>
      </trkpt>
      <trkpt lat="37.1766449938" lon="-7.44433436124">
        <ele>10.6</ele>
        <time>2011-03-21T08:34:27Z</time>
      </trkpt>
      <trkpt lat="37.1766030004" lon="-7.44428691968">
        <ele>10.4</ele>
        <time>2011-03-21T08:34:30Z</time>
      </trkpt>
      <trkpt lat="37.1765706463" lon="-7.44424274707">
        <ele>10.2</ele>
        <time>2011-03-21T08:34:32Z</time>
      </trkpt>
      <trkpt lat="37.1765521223" lon="-7.44420368742">
        <ele>10.2</ele>
        <time>2011-03-21T08:34:33Z</time>
      </trkpt>
      <trkpt lat="37.176522618" lon="-7.44413847624">
        <ele>10</ele>
        <time>2011-03-21T08:34:35Z</time>
      </trkpt>
      <trkpt lat="37.1765009927" lon="-7.44407217541">
        <ele>10</ele>
        <time>2011-03-21T08:34:38Z</time>
      </trkpt>
      <trkpt lat="37.1764843127" lon="-7.44400973025">
        <ele>10</ele>
        <time>2011-03-21T08:34:39Z</time>
      </trkpt>
      <trkpt lat="37.17646428" lon="-7.44394795565">
        <ele>9.8</ele>
        <time>2011-03-21T08:34:42Z</time>
      </trkpt>
      <trkpt lat="37.176448522" lon="-7.44389674224">
        <ele>9.8</ele>
        <time>2011-03-21T08:34:43Z</time>
      </trkpt>
      <trkpt lat="37.1764336861" lon="-7.44383865567">
        <ele>9.8</ele>
        <time>2011-03-21T08:34:45Z</time>
      </trkpt>
      <trkpt lat="37.1764196883" lon="-7.44377344449">
        <ele>9.8</ele>
        <time>2011-03-21T08:34:48Z</time>
      </trkpt>
      <trkpt lat="37.1764065287" lon="-7.44371200516">
        <ele>9.8</ele>
        <time>2011-03-21T08:34:50Z</time>
      </trkpt>
      <trkpt lat="37.1763978953" lon="-7.44365559498">
        <ele>9.8</ele>
        <time>2011-03-21T08:34:51Z</time>
      </trkpt>
      <trkpt lat="37.1763895134" lon="-7.44359759223">
        <ele>9.8</ele>
        <time>2011-03-21T08:34:54Z</time>
      </trkpt>
      <trkpt lat="37.1763824727" lon="-7.44354269078">
        <ele>9.8</ele>
        <time>2011-03-21T08:34:55Z</time>
      </trkpt>
      <trkpt lat="37.1763657089" lon="-7.44346147017">
        <ele>9.8</ele>
        <time>2011-03-21T08:34:59Z</time>
      </trkpt>
      <trkpt lat="37.1763561535" lon="-7.44340480853">
        <ele>9.6</ele>
        <time>2011-03-21T08:35:00Z</time>
      </trkpt>
      <trkpt lat="37.176344335" lon="-7.44334890126">
        <ele>9.6</ele>
        <time>2011-03-21T08:35:03Z</time>
      </trkpt>
      <trkpt lat="37.1763370428" lon="-7.44329140142">
        <ele>9.6</ele>
        <time>2011-03-21T08:35:05Z</time>
      </trkpt>
      <trkpt lat="37.1763298343" lon="-7.44323557797">
        <ele>9.6</ele>
        <time>2011-03-21T08:35:07Z</time>
      </trkpt>
      <trkpt lat="37.1763232126" lon="-7.44317472537">
        <ele>9.6</ele>
        <time>2011-03-21T08:35:09Z</time>
      </trkpt>
      <trkpt lat="37.1763157527" lon="-7.4431152977">
        <ele>9.6</ele>
        <time>2011-03-21T08:35:10Z</time>
      </trkpt>
      <trkpt lat="37.176305443" lon="-7.44305603767">
        <ele>9.6</ele>
        <time>2011-03-21T08:35:13Z</time>
      </trkpt>
      <trkpt lat="37.1763023417" lon="-7.44299593945">
        <ele>9.6</ele>
        <time>2011-03-21T08:35:15Z</time>
      </trkpt>
      <trkpt lat="37.1762953847" lon="-7.44293776906">
        <ele>9.6</ele>
        <time>2011-03-21T08:35:17Z</time>
      </trkpt>
      <trkpt lat="37.1762845721" lon="-7.44285503971">
        <ele>9.6</ele>
        <time>2011-03-21T08:35:20Z</time>
      </trkpt>
      <trkpt lat="37.176271161" lon="-7.44277264563">
        <ele>9.6</ele>
        <time>2011-03-21T08:35:23Z</time>
      </trkpt>
      <trkpt lat="37.1762638688" lon="-7.44271372087">
        <ele>9.6</ele>
        <time>2011-03-21T08:35:25Z</time>
      </trkpt>
      <trkpt lat="37.1762566603" lon="-7.44262965042">
        <ele>9.6</ele>
        <time>2011-03-21T08:35:27Z</time>
      </trkpt>
      <trkpt lat="37.1762528047" lon="-7.44255991301">
        <ele>9.6</ele>
        <time>2011-03-21T08:35:30Z</time>
      </trkpt>
      <trkpt lat="37.1762449257" lon="-7.44247735129">
        <ele>9.6</ele>
        <time>2011-03-21T08:35:33Z</time>
      </trkpt>
      <trkpt lat="37.1762370467" lon="-7.44241322976">
        <ele>9.6</ele>
        <time>2011-03-21T08:35:35Z</time>
      </trkpt>
      <trkpt lat="37.1762325205" lon="-7.44234609074">
        <ele>9.6</ele>
        <time>2011-03-21T08:35:37Z</time>
      </trkpt>
      <trkpt lat="37.1762273237" lon="-7.44229043492">
        <ele>9.6</ele>
        <time>2011-03-21T08:35:39Z</time>
      </trkpt>
      <trkpt lat="37.1762232166" lon="-7.44223930533">
        <ele>9.6</ele>
        <time>2011-03-21T08:35:40Z</time>
      </trkpt>
      <trkpt lat="37.1762131583" lon="-7.44214919991">
        <ele>9.6</ele>
        <time>2011-03-21T08:35:44Z</time>
      </trkpt>
      <trkpt lat="37.176210979" lon="-7.44209245445">
        <ele>9.6</ele>
        <time>2011-03-21T08:35:45Z</time>
      </trkpt>
      <trkpt lat="37.1761993281" lon="-7.44200503123">
        <ele>9.6</ele>
        <time>2011-03-21T08:35:49Z</time>
      </trkpt>
      <trkpt lat="37.1761904433" lon="-7.44191878148">
        <ele>9.6</ele>
        <time>2011-03-21T08:35:52Z</time>
      </trkpt>
      <trkpt lat="37.1761875935" lon="-7.44185792888">
        <ele>9.6</ele>
        <time>2011-03-21T08:35:54Z</time>
      </trkpt>
      <trkpt lat="37.1761820614" lon="-7.44179858503">
        <ele>9.6</ele>
        <time>2011-03-21T08:35:56Z</time>
      </trkpt>
      <trkpt lat="37.1761801336" lon="-7.44170847961">
        <ele>9.6</ele>
        <time>2011-03-21T08:35:59Z</time>
      </trkpt>
      <trkpt lat="37.176173931" lon="-7.44165039304">
        <ele>9.6</ele>
        <time>2011-03-21T08:36:01Z</time>
      </trkpt>
      <trkpt lat="37.1761652138" lon="-7.44159088155">
        <ele>9.6</ele>
        <time>2011-03-21T08:36:03Z</time>
      </trkpt>
      <trkpt lat="37.1761588436" lon="-7.44151049913">
        <ele>9.6</ele>
        <time>2011-03-21T08:36:06Z</time>
      </trkpt>
      <trkpt lat="37.1761468574" lon="-7.44142466847">
        <ele>9.6</ele>
        <time>2011-03-21T08:36:09Z</time>
      </trkpt>
      <trkpt lat="37.1761349551" lon="-7.4413436155">
        <ele>9.6</ele>
        <time>2011-03-21T08:36:12Z</time>
      </trkpt>
      <trkpt lat="37.1761266571" lon="-7.44128519366">
        <ele>9.6</ele>
        <time>2011-03-21T08:36:14Z</time>
      </trkpt>
      <trkpt lat="37.1761164311" lon="-7.44120003355">
        <ele>9.6</ele>
        <time>2011-03-21T08:36:17Z</time>
      </trkpt>
      <trkpt lat="37.1761112344" lon="-7.44113867804">
        <ele>9.6</ele>
        <time>2011-03-21T08:36:19Z</time>
      </trkpt>
      <trkpt lat="37.1761093904" lon="-7.44108293841">
        <ele>9.6</ele>
        <time>2011-03-21T08:36:21Z</time>
      </trkpt>
      <trkpt lat="37.1761041098" lon="-7.44102015798">
        <ele>9.6</ele>
        <time>2011-03-21T08:36:23Z</time>
      </trkpt>
      <trkpt lat="37.1760974881" lon="-7.4409615685">
        <ele>9.6</ele>
        <time>2011-03-21T08:36:25Z</time>
      </trkpt>
      <trkpt lat="37.1760913693" lon="-7.44090457158">
        <ele>9.6</ele>
        <time>2011-03-21T08:36:27Z</time>
      </trkpt>
      <trkpt lat="37.1760863401" lon="-7.44084916722">
        <ele>9.6</ele>
        <time>2011-03-21T08:36:29Z</time>
      </trkpt>
      <trkpt lat="37.1760786288" lon="-7.44076283365">
        <ele>9.6</ele>
        <time>2011-03-21T08:36:32Z</time>
      </trkpt>
      <trkpt lat="37.1760723424" lon="-7.44070742929">
        <ele>9.6</ele>
        <time>2011-03-21T08:36:34Z</time>
      </trkpt>
      <trkpt lat="37.1760653016" lon="-7.44064833689">
        <ele>9.6</ele>
        <time>2011-03-21T08:36:36Z</time>
      </trkpt>
      <trkpt lat="37.1760601048" lon="-7.44058874159">
        <ele>9.6</ele>
        <time>2011-03-21T08:36:38Z</time>
      </trkpt>
      <trkpt lat="37.1760552433" lon="-7.44053174467">
        <ele>9.6</ele>
        <time>2011-03-21T08:36:40Z</time>
      </trkpt>
      <trkpt lat="37.1760520582" lon="-7.4404670364">
        <ele>9.6</ele>
        <time>2011-03-21T08:36:42Z</time>
      </trkpt>
      <trkpt lat="37.1760485378" lon="-7.44038053519">
        <ele>9.6</ele>
        <time>2011-03-21T08:36:45Z</time>
      </trkpt>
      <trkpt lat="37.176049795" lon="-7.44031767094">
        <ele>9.6</ele>
        <time>2011-03-21T08:36:47Z</time>
      </trkpt>
      <trkpt lat="37.1760506332" lon="-7.44026134457">
        <ele>9.6</ele>
        <time>2011-03-21T08:36:49Z</time>
      </trkpt>
      <trkpt lat="37.1760496274" lon="-7.44017735793">
        <ele>9.6</ele>
        <time>2011-03-21T08:36:52Z</time>
      </trkpt>
      <trkpt lat="37.1760552433" lon="-7.44011684062">
        <ele>9.6</ele>
        <time>2011-03-21T08:36:54Z</time>
      </trkpt>
      <trkpt lat="37.176060943" lon="-7.44005892169">
        <ele>9.6</ele>
        <time>2011-03-21T08:36:56Z</time>
      </trkpt>
      <trkpt lat="37.1760654692" lon="-7.43999362669">
        <ele>9.6</ele>
        <time>2011-03-21T08:36:58Z</time>
      </trkpt>
      <trkpt lat="37.1760700792" lon="-7.43993243882">
        <ele>9.6</ele>
        <time>2011-03-21T08:37:00Z</time>
      </trkpt>
      <trkpt lat="37.1760711689" lon="-7.43984920655">
        <ele>9.6</ele>
        <time>2011-03-21T08:37:03Z</time>
      </trkpt>
      <trkpt lat="37.1760694087" lon="-7.43976228625">
        <ele>9.6</ele>
        <time>2011-03-21T08:37:06Z</time>
      </trkpt>
      <trkpt lat="37.1760685705" lon="-7.43970151747">
        <ele>9.6</ele>
        <time>2011-03-21T08:37:08Z</time>
      </trkpt>
      <trkpt lat="37.1760647148" lon="-7.43964041342">
        <ele>9.6</ele>
        <time>2011-03-21T08:37:10Z</time>
      </trkpt>
      <trkpt lat="37.1760623679" lon="-7.43955407985">
        <ele>9.6</ele>
        <time>2011-03-21T08:37:13Z</time>
      </trkpt>
      <trkpt lat="37.1760591828" lon="-7.43949540655">
        <ele>9.6</ele>
        <time>2011-03-21T08:37:15Z</time>
      </trkpt>
      <trkpt lat="37.1760580931" lon="-7.43943664943">
        <ele>9.6</ele>
        <time>2011-03-21T08:37:17Z</time>
      </trkpt>
      <trkpt lat="37.176057674" lon="-7.43937236026">
        <ele>9.6</ele>
        <time>2011-03-21T08:37:19Z</time>
      </trkpt>
      <trkpt lat="37.1760538184" lon="-7.43931486042">
        <ele>9.6</ele>
        <time>2011-03-21T08:37:21Z</time>
      </trkpt>
      <trkpt lat="37.1760515552" lon="-7.43925140944">
        <ele>9.6</ele>
        <time>2011-03-21T08:37:23Z</time>
      </trkpt>
      <trkpt lat="37.176047029" lon="-7.43919240086">
        <ele>9.6</ele>
        <time>2011-03-21T08:37:25Z</time>
      </trkpt>
      <trkpt lat="37.1760440115" lon="-7.43913657741">
        <ele>9.6</ele>
        <time>2011-03-21T08:37:27Z</time>
      </trkpt>
      <trkpt lat="37.1760406588" lon="-7.4390800834">
        <ele>9.6</ele>
        <time>2011-03-21T08:37:29Z</time>
      </trkpt>
      <trkpt lat="37.176040994" lon="-7.4389953424">
        <ele>9.6</ele>
        <time>2011-03-21T08:37:32Z</time>
      </trkpt>
      <trkpt lat="37.1760362164" lon="-7.43891143958">
        <ele>9.6</ele>
        <time>2011-03-21T08:37:35Z</time>
      </trkpt>
      <trkpt lat="37.1760335342" lon="-7.4388541912">
        <ele>9.6</ele>
        <time>2011-03-21T08:37:37Z</time>
      </trkpt>
      <trkpt lat="37.1760337018" lon="-7.43879350624">
        <ele>9.6</ele>
        <time>2011-03-21T08:37:39Z</time>
      </trkpt>
      <trkpt lat="37.1760358811" lon="-7.43873768279">
        <ele>9.6</ele>
        <time>2011-03-21T08:37:41Z</time>
      </trkpt>
      <trkpt lat="37.17603915" lon="-7.43867808748">
        <ele>9.6</ele>
        <time>2011-03-21T08:37:43Z</time>
      </trkpt>
      <trkpt lat="37.1760427542" lon="-7.43862117438">
        <ele>9.6</ele>
        <time>2011-03-21T08:37:45Z</time>
      </trkpt>
      <trkpt lat="37.1760482863" lon="-7.43855939978">
        <ele>9.6</ele>
        <time>2011-03-21T08:37:47Z</time>
      </trkpt>
      <trkpt lat="37.1760518067" lon="-7.4385039116">
        <ele>9.6</ele>
        <time>2011-03-21T08:37:49Z</time>
      </trkpt>
      <trkpt lat="37.1760561653" lon="-7.43844750141">
        <ele>9.6</ele>
        <time>2011-03-21T08:37:51Z</time>
      </trkpt>
      <trkpt lat="37.176059099" lon="-7.43838673264">
        <ele>9.6</ele>
        <time>2011-03-21T08:37:53Z</time>
      </trkpt>
      <trkpt lat="37.1760622841" lon="-7.43832487421">
        <ele>10</ele>
        <time>2011-03-21T08:37:55Z</time>
      </trkpt>
      <trkpt lat="37.1760573388" lon="-7.43826544654">
        <ele>10.4</ele>
        <time>2011-03-21T08:37:57Z</time>
      </trkpt>
      <trkpt lat="37.1760508847" lon="-7.43820509686">
        <ele>10.6</ele>
        <time>2011-03-21T08:37:59Z</time>
      </trkpt>
      <trkpt lat="37.1760457717" lon="-7.43814667502">
        <ele>10.8</ele>
        <time>2011-03-21T08:38:01Z</time>
      </trkpt>
      <trkpt lat="37.1760388148" lon="-7.43808557097">
        <ele>11</ele>
        <time>2011-03-21T08:38:03Z</time>
      </trkpt>
      <trkpt lat="37.176033618" lon="-7.43802639476">
        <ele>11.2</ele>
        <time>2011-03-21T08:38:05Z</time>
      </trkpt>
      <trkpt lat="37.1760271639" lon="-7.43796537452">
        <ele>11.2</ele>
        <time>2011-03-21T08:38:07Z</time>
      </trkpt>
      <trkpt lat="37.1760223862" lon="-7.43790443811">
        <ele>11.2</ele>
        <time>2011-03-21T08:38:09Z</time>
      </trkpt>
      <trkpt lat="37.1760119089" lon="-7.43780829772">
        <ele>11.4</ele>
        <time>2011-03-21T08:38:12Z</time>
      </trkpt>
      <trkpt lat="37.176004449" lon="-7.43774476291">
        <ele>11.4</ele>
        <time>2011-03-21T08:38:14Z</time>
      </trkpt>
      <trkpt lat="37.1759957318" lon="-7.43768550288">
        <ele>11.4</ele>
        <time>2011-03-21T08:38:15Z</time>
      </trkpt>
      <trkpt lat="37.1759881881" lon="-7.43761710658">
        <ele>11.6</ele>
        <time>2011-03-21T08:38:18Z</time>
      </trkpt>
      <trkpt lat="37.1759815664" lon="-7.43755734363">
        <ele>11.6</ele>
        <time>2011-03-21T08:38:20Z</time>
      </trkpt>
      <trkpt lat="37.1759723463" lon="-7.43749783214">
        <ele>11.6</ele>
        <time>2011-03-21T08:38:22Z</time>
      </trkpt>
      <trkpt lat="37.1759648864" lon="-7.437436309">
        <ele>11.6</ele>
        <time>2011-03-21T08:38:24Z</time>
      </trkpt>
      <trkpt lat="37.1759575103" lon="-7.43738232956">
        <ele>11.6</ele>
        <time>2011-03-21T08:38:26Z</time>
      </trkpt>
      <trkpt lat="37.1759480388" lon="-7.43732726048">
        <ele>11.6</ele>
        <time>2011-03-21T08:38:28Z</time>
      </trkpt>
      <trkpt lat="37.1759389025" lon="-7.43726699462">
        <ele>11.6</ele>
        <time>2011-03-21T08:38:30Z</time>
      </trkpt>
      <trkpt lat="37.1759307721" lon="-7.43718644456">
        <ele>11.6</ele>
        <time>2011-03-21T08:38:33Z</time>
      </trkpt>
      <trkpt lat="37.1759225578" lon="-7.43712969909">
        <ele>11.6</ele>
        <time>2011-03-21T08:38:35Z</time>
      </trkpt>
      <trkpt lat="37.1759145112" lon="-7.43707278599">
        <ele>11.6</ele>
        <time>2011-03-21T08:38:37Z</time>
      </trkpt>
      <trkpt lat="37.1759092306" lon="-7.43701302305">
        <ele>11.6</ele>
        <time>2011-03-21T08:38:39Z</time>
      </trkpt>
      <trkpt lat="37.1759026089" lon="-7.43695342774">
        <ele>11.6</ele>
        <time>2011-03-21T08:38:41Z</time>
      </trkpt>
      <trkpt lat="37.1758941432" lon="-7.4368959279">
        <ele>11.6</ele>
        <time>2011-03-21T08:38:43Z</time>
      </trkpt>
      <trkpt lat="37.1758881082" lon="-7.43683708696">
        <ele>11.6</ele>
        <time>2011-03-21T08:38:45Z</time>
      </trkpt>
      <trkpt lat="37.1758799777" lon="-7.4367785813">
        <ele>11.6</ele>
        <time>2011-03-21T08:38:47Z</time>
      </trkpt>
      <trkpt lat="37.1758704224" lon="-7.43671705816">
        <ele>11.6</ele>
        <time>2011-03-21T08:38:49Z</time>
      </trkpt>
      <trkpt lat="37.1758623758" lon="-7.43666098325">
        <ele>11.6</ele>
        <time>2011-03-21T08:38:51Z</time>
      </trkpt>
      <trkpt lat="37.1758500544" lon="-7.43660189085">
        <ele>11.6</ele>
        <time>2011-03-21T08:38:53Z</time>
      </trkpt>
      <trkpt lat="37.1758402475" lon="-7.43654573212">
        <ele>11.6</ele>
        <time>2011-03-21T08:38:55Z</time>
      </trkpt>
      <trkpt lat="37.1758367271" lon="-7.43648471189">
        <ele>11.6</ele>
        <time>2011-03-21T08:38:57Z</time>
      </trkpt>
      <trkpt lat="37.175827088" lon="-7.43642427839">
        <ele>11.6</ele>
        <time>2011-03-21T08:38:59Z</time>
      </trkpt>
      <trkpt lat="37.1758156886" lon="-7.43636912549">
        <ele>11.6</ele>
        <time>2011-03-21T08:39:01Z</time>
      </trkpt>
      <trkpt lat="37.175807139" lon="-7.43631036837">
        <ele>11.6</ele>
        <time>2011-03-21T08:39:03Z</time>
      </trkpt>
      <trkpt lat="37.1757963264" lon="-7.43625211416">
        <ele>11.6</ele>
        <time>2011-03-21T08:39:05Z</time>
      </trkpt>
      <trkpt lat="37.1757839212" lon="-7.43619696126">
        <ele>11.6</ele>
        <time>2011-03-21T08:39:07Z</time>
      </trkpt>
      <trkpt lat="37.175771013" lon="-7.4361402158">
        <ele>11.6</ele>
        <time>2011-03-21T08:39:09Z</time>
      </trkpt>
      <trkpt lat="37.1757577696" lon="-7.43605044565">
        <ele>11.6</ele>
        <time>2011-03-21T08:39:12Z</time>
      </trkpt>
      <trkpt lat="37.1757481305" lon="-7.43599344873">
        <ele>11.6</ele>
        <time>2011-03-21T08:39:14Z</time>
      </trkpt>
      <trkpt lat="37.1757394133" lon="-7.43594474989">
        <ele>11.6</ele>
        <time>2011-03-21T08:39:15Z</time>
      </trkpt>
      <trkpt lat="37.1757317019" lon="-7.43588104745">
        <ele>11.6</ele>
        <time>2011-03-21T08:39:18Z</time>
      </trkpt>
      <trkpt lat="37.1757234039" lon="-7.43579806664">
        <ele>11.6</ele>
        <time>2011-03-21T08:39:20Z</time>
      </trkpt>
      <trkpt lat="37.1757179556" lon="-7.43573604058">
        <ele>11.6</ele>
        <time>2011-03-21T08:39:23Z</time>
      </trkpt>
      <trkpt lat="37.1757081488" lon="-7.43565699926">
        <ele>11.6</ele>
        <time>2011-03-21T08:39:26Z</time>
      </trkpt>
      <trkpt lat="37.1757021976" lon="-7.43560092435">
        <ele>11.6</ele>
        <time>2011-03-21T08:39:28Z</time>
      </trkpt>
      <trkpt lat="37.1756935643" lon="-7.43553093549">
        <ele>11.6</ele>
        <time>2011-03-21T08:39:30Z</time>
      </trkpt>
      <trkpt lat="37.1756831707" lon="-7.43545650422">
        <ele>11.6</ele>
        <time>2011-03-21T08:39:33Z</time>
      </trkpt>
      <trkpt lat="37.17568074" lon="-7.43539808237">
        <ele>11.6</ele>
        <time>2011-03-21T08:39:35Z</time>
      </trkpt>
      <trkpt lat="37.1756773034" lon="-7.43534292947">
        <ele>11.6</ele>
        <time>2011-03-21T08:39:37Z</time>
      </trkpt>
      <trkpt lat="37.1756748727" lon="-7.435285262">
        <ele>11.6</ele>
        <time>2011-03-21T08:39:39Z</time>
      </trkpt>
      <trkpt lat="37.1756705141" lon="-7.43519951516">
        <ele>11.6</ele>
        <time>2011-03-21T08:39:42Z</time>
      </trkpt>
      <trkpt lat="37.1756637247" lon="-7.43511133757">
        <ele>11.6</ele>
        <time>2011-03-21T08:39:45Z</time>
      </trkpt>
      <trkpt lat="37.1756614616" lon="-7.43505350246">
        <ele>11.6</ele>
        <time>2011-03-21T08:39:47Z</time>
      </trkpt>
      <trkpt lat="37.1756617969" lon="-7.4349949968">
        <ele>11.6</ele>
        <time>2011-03-21T08:39:49Z</time>
      </trkpt>
      <trkpt lat="37.175657103" lon="-7.43491285418">
        <ele>11.6</ele>
        <time>2011-03-21T08:39:52Z</time>
      </trkpt>
      <trkpt lat="37.1756570192" lon="-7.4348529236">
        <ele>11.6</ele>
        <time>2011-03-21T08:39:54Z</time>
      </trkpt>
      <trkpt lat="37.1756529959" lon="-7.43479676487">
        <ele>11.6</ele>
        <time>2011-03-21T08:39:56Z</time>
      </trkpt>
      <trkpt lat="37.1756483859" lon="-7.43474068996">
        <ele>11.6</ele>
        <time>2011-03-21T08:39:58Z</time>
      </trkpt>
      <trkpt lat="37.175646458" lon="-7.43468260339">
        <ele>11.6</ele>
        <time>2011-03-21T08:40:00Z</time>
      </trkpt>
      <trkpt lat="37.1756437758" lon="-7.43462535501">
        <ele>11.6</ele>
        <time>2011-03-21T08:40:02Z</time>
      </trkpt>
      <trkpt lat="37.1756363997" lon="-7.43454354767">
        <ele>11.6</ele>
        <time>2011-03-21T08:40:05Z</time>
      </trkpt>
      <trkpt lat="37.1756310353" lon="-7.43448269507">
        <ele>11.6</ele>
        <time>2011-03-21T08:40:07Z</time>
      </trkpt>
      <trkpt lat="37.1756240783" lon="-7.43442427323">
        <ele>11.6</ele>
        <time>2011-03-21T08:40:09Z</time>
      </trkpt>
      <trkpt lat="37.175616367" lon="-7.43433517363">
        <ele>11.6</ele>
        <time>2011-03-21T08:40:12Z</time>
      </trkpt>
      <trkpt lat="37.1756077336" lon="-7.43424892388">
        <ele>11.6</ele>
        <time>2011-03-21T08:40:15Z</time>
      </trkpt>
      <trkpt lat="37.1755989326" lon="-7.43419184314">
        <ele>11.6</ele>
        <time>2011-03-21T08:40:17Z</time>
      </trkpt>
      <trkpt lat="37.1755920595" lon="-7.43413283457">
        <ele>11.6</ele>
        <time>2011-03-21T08:40:19Z</time>
      </trkpt>
      <trkpt lat="37.1755858569" lon="-7.43407835222">
        <ele>11.6</ele>
        <time>2011-03-21T08:40:21Z</time>
      </trkpt>
      <trkpt lat="37.1755798219" lon="-7.43401800254">
        <ele>11.6</ele>
        <time>2011-03-21T08:40:23Z</time>
      </trkpt>
      <trkpt lat="37.1755708533" lon="-7.43396008361">
        <ele>11.6</ele>
        <time>2011-03-21T08:40:25Z</time>
      </trkpt>
      <trkpt lat="37.1755616332" lon="-7.43390283523">
        <ele>11.6</ele>
        <time>2011-03-21T08:40:27Z</time>
      </trkpt>
      <trkpt lat="37.1755567717" lon="-7.4338400548">
        <ele>11.6</ele>
        <time>2011-03-21T08:40:29Z</time>
      </trkpt>
      <trkpt lat="37.1755415166" lon="-7.43375279922">
        <ele>11.6</ele>
        <time>2011-03-21T08:40:32Z</time>
      </trkpt>
      <trkpt lat="37.1755332185" lon="-7.43369219808">
        <ele>11.6</ele>
        <time>2011-03-21T08:40:34Z</time>
      </trkpt>
      <trkpt lat="37.175524669" lon="-7.43362958529">
        <ele>11.6</ele>
        <time>2011-03-21T08:40:36Z</time>
      </trkpt>
      <trkpt lat="37.1755082405" lon="-7.4335453472">
        <ele>11.6</ele>
        <time>2011-03-21T08:40:39Z</time>
      </trkpt>
      <trkpt lat="37.1754962544" lon="-7.43348566807">
        <ele>11.6</ele>
        <time>2011-03-21T08:40:41Z</time>
      </trkpt>
      <trkpt lat="37.1754846035" lon="-7.43342707859">
        <ele>11.6</ele>
        <time>2011-03-21T08:40:43Z</time>
      </trkpt>
      <trkpt lat="37.1754735394" lon="-7.43337016549">
        <ele>11.6</ele>
        <time>2011-03-21T08:40:45Z</time>
      </trkpt>
      <trkpt lat="37.1754607151" lon="-7.43331073782">
        <ele>11.6</ele>
        <time>2011-03-21T08:40:47Z</time>
      </trkpt>
      <trkpt lat="37.1754522494" lon="-7.43324552663">
        <ele>11.6</ele>
        <time>2011-03-21T08:40:49Z</time>
      </trkpt>
      <trkpt lat="37.1754421911" lon="-7.43318324912">
        <ele>11.6</ele>
        <time>2011-03-21T08:40:51Z</time>
      </trkpt>
      <trkpt lat="37.1754304565" lon="-7.43312809621">
        <ele>11.6</ele>
        <time>2011-03-21T08:40:53Z</time>
      </trkpt>
      <trkpt lat="37.1754181351" lon="-7.43306824945">
        <ele>11.6</ele>
        <time>2011-03-21T08:40:55Z</time>
      </trkpt>
      <trkpt lat="37.1754099208" lon="-7.43300731304">
        <ele>11.6</ele>
        <time>2011-03-21T08:40:57Z</time>
      </trkpt>
      <trkpt lat="37.17539827" lon="-7.43295140576">
        <ele>11.6</ele>
        <time>2011-03-21T08:40:59Z</time>
      </trkpt>
      <trkpt lat="37.1753861162" lon="-7.43289843215">
        <ele>11.6</ele>
        <time>2011-03-21T08:41:01Z</time>
      </trkpt>
      <trkpt lat="37.1753713641" lon="-7.43283825011">
        <ele>11.6</ele>
        <time>2011-03-21T08:41:03Z</time>
      </trkpt>
      <trkpt lat="37.1753633174" lon="-7.43278007973">
        <ele>11.6</ele>
        <time>2011-03-21T08:41:05Z</time>
      </trkpt>
      <trkpt lat="37.1753479786" lon="-7.43272065205">
        <ele>11.6</ele>
        <time>2011-03-21T08:41:07Z</time>
      </trkpt>
      <trkpt lat="37.1753344837" lon="-7.43266734317">
        <ele>11.6</ele>
        <time>2011-03-21T08:41:09Z</time>
      </trkpt>
      <trkpt lat="37.1753205697" lon="-7.43258033905">
        <ele>11.6</ele>
        <time>2011-03-21T08:41:12Z</time>
      </trkpt>
      <trkpt lat="37.1753105953" lon="-7.43252133047">
        <ele>11.6</ele>
        <time>2011-03-21T08:41:14Z</time>
      </trkpt>
      <trkpt lat="37.1753041412" lon="-7.43246810541">
        <ele>11.6</ele>
        <time>2011-03-21T08:41:15Z</time>
      </trkpt>
      <trkpt lat="37.1752976033" lon="-7.43241001884">
        <ele>11.6</ele>
        <time>2011-03-21T08:41:18Z</time>
      </trkpt>
      <trkpt lat="37.175290814" lon="-7.43235578795">
        <ele>11.6</ele>
        <time>2011-03-21T08:41:20Z</time>
      </trkpt>
      <trkpt lat="37.1752817615" lon="-7.4323026467">
        <ele>11.6</ele>
        <time>2011-03-21T08:41:22Z</time>
      </trkpt>
      <trkpt lat="37.1752714518" lon="-7.43224456014">
        <ele>11.6</ele>
        <time>2011-03-21T08:41:24Z</time>
      </trkpt>
      <trkpt lat="37.1752663388" lon="-7.43219007779">
        <ele>11.6</ele>
        <time>2011-03-21T08:41:26Z</time>
      </trkpt>
      <trkpt lat="37.1752514191" lon="-7.43210734843">
        <ele>11.6</ele>
        <time>2011-03-21T08:41:29Z</time>
      </trkpt>
      <trkpt lat="37.1752365831" lon="-7.43202755274">
        <ele>11.6</ele>
        <time>2011-03-21T08:41:32Z</time>
      </trkpt>
      <trkpt lat="37.1752253514" lon="-7.43194608068">
        <ele>11.6</ele>
        <time>2011-03-21T08:41:35Z</time>
      </trkpt>
      <trkpt lat="37.1752178076" lon="-7.43188925139">
        <ele>11.6</ele>
        <time>2011-03-21T08:41:37Z</time>
      </trkpt>
      <trkpt lat="37.1752092581" lon="-7.43183560723">
        <ele>11.6</ele>
        <time>2011-03-21T08:41:39Z</time>
      </trkpt>
      <trkpt lat="37.1752030555" lon="-7.43177793976">
        <ele>11.6</ele>
        <time>2011-03-21T08:41:41Z</time>
      </trkpt>
      <trkpt lat="37.1751910694" lon="-7.43171926646">
        <ele>11.6</ele>
        <time>2011-03-21T08:41:43Z</time>
      </trkpt>
      <trkpt lat="37.1751809273" lon="-7.43165128925">
        <ele>11.6</ele>
        <time>2011-03-21T08:41:45Z</time>
      </trkpt>
      <trkpt lat="37.1751684383" lon="-7.43157551688">
        <ele>11.6</ele>
        <time>2011-03-21T08:41:48Z</time>
      </trkpt>
      <trkpt lat="37.1751579609" lon="-7.43150360018">
        <ele>11.6</ele>
        <time>2011-03-21T08:41:50Z</time>
      </trkpt>
      <trkpt lat="37.1751528479" lon="-7.43145909229">
        <ele>11.6</ele>
        <time>2011-03-21T08:41:52Z</time>
      </trkpt>
      <trkpt lat="37.1751436278" lon="-7.43139681477">
        <ele>11.6</ele>
        <time>2011-03-21T08:41:54Z</time>
      </trkpt>
      <trkpt lat="37.1751353298" lon="-7.43133923112">
        <ele>11.6</ele>
        <time>2011-03-21T08:41:56Z</time>
      </trkpt>
      <trkpt lat="37.1751267802" lon="-7.4312782947">
        <ele>11.6</ele>
        <time>2011-03-21T08:41:58Z</time>
      </trkpt>
      <trkpt lat="37.1751188174" lon="-7.43121207769">
        <ele>11.6</ele>
        <time>2011-03-21T08:42:00Z</time>
      </trkpt>
      <trkpt lat="37.1751129501" lon="-7.43115047073">
        <ele>11.6</ele>
        <time>2011-03-21T08:42:02Z</time>
      </trkpt>
      <trkpt lat="37.1751049035" lon="-7.43109154597">
        <ele>11.6</ele>
        <time>2011-03-21T08:42:04Z</time>
      </trkpt>
      <trkpt lat="37.175096773" lon="-7.43103060956">
        <ele>11.6</ele>
        <time>2011-03-21T08:42:06Z</time>
      </trkpt>
      <trkpt lat="37.1750868824" lon="-7.43097202008">
        <ele>11.6</ele>
        <time>2011-03-21T08:42:08Z</time>
      </trkpt>
      <trkpt lat="37.1750780814" lon="-7.43089960046">
        <ele>11.6</ele>
        <time>2011-03-21T08:42:10Z</time>
      </trkpt>
      <trkpt lat="37.1750667658" lon="-7.43082022387">
        <ele>11.6</ele>
        <time>2011-03-21T08:42:13Z</time>
      </trkpt>
      <trkpt lat="37.1750603956" lon="-7.43075719198">
        <ele>11.6</ele>
        <time>2011-03-21T08:42:15Z</time>
      </trkpt>
      <trkpt lat="37.175051846" lon="-7.43069642321">
        <ele>11.6</ele>
        <time>2011-03-21T08:42:17Z</time>
      </trkpt>
      <trkpt lat="37.1750411172" lon="-7.43063414569">
        <ele>11.6</ele>
        <time>2011-03-21T08:42:19Z</time>
      </trkpt>
      <trkpt lat="37.1750313104" lon="-7.43057572385">
        <ele>11.6</ele>
        <time>2011-03-21T08:42:21Z</time>
      </trkpt>
      <trkpt lat="37.1750241858" lon="-7.4305128596">
        <ele>11.6</ele>
        <time>2011-03-21T08:42:23Z</time>
      </trkpt>
      <trkpt lat="37.1750143789" lon="-7.43044915716">
        <ele>11.6</ele>
        <time>2011-03-21T08:42:25Z</time>
      </trkpt>
      <trkpt lat="37.1750063323" lon="-7.43038646054">
        <ele>11.6</ele>
        <time>2011-03-21T08:42:27Z</time>
      </trkpt>
      <trkpt lat="37.1749998782" lon="-7.43032636232">
        <ele>11.6</ele>
        <time>2011-03-21T08:42:29Z</time>
      </trkpt>
      <trkpt lat="37.174987976" lon="-7.43023474815">
        <ele>11.6</ele>
        <time>2011-03-21T08:42:32Z</time>
      </trkpt>
      <trkpt lat="37.1749802646" lon="-7.43017775123">
        <ele>11.6</ele>
        <time>2011-03-21T08:42:34Z</time>
      </trkpt>
      <trkpt lat="37.1749754869" lon="-7.43011656336">
        <ele>11.6</ele>
        <time>2011-03-21T08:42:36Z</time>
      </trkpt>
      <trkpt lat="37.1749705416" lon="-7.43005864443">
        <ele>11.6</ele>
        <time>2011-03-21T08:42:37Z</time>
      </trkpt>
      <trkpt lat="37.1749666021" lon="-7.43001539383">
        <ele>11.6</ele>
        <time>2011-03-21T08:42:39Z</time>
      </trkpt>
      <trkpt lat="37.1749541969" lon="-7.42991020099">
        <ele>11.6</ele>
        <time>2011-03-21T08:42:42Z</time>
      </trkpt>
      <trkpt lat="37.1749477428" lon="-7.42984675">
        <ele>11.6</ele>
        <time>2011-03-21T08:42:45Z</time>
      </trkpt>
      <trkpt lat="37.1749332421" lon="-7.42976368537">
        <ele>11.6</ele>
        <time>2011-03-21T08:42:48Z</time>
      </trkpt>
      <trkpt lat="37.1749231839" lon="-7.42969604344">
        <ele>11.6</ele>
        <time>2011-03-21T08:42:50Z</time>
      </trkpt>
      <trkpt lat="37.1749088508" lon="-7.42962379146">
        <ele>11.6</ele>
        <time>2011-03-21T08:42:53Z</time>
      </trkpt>
      <trkpt lat="37.1748965294" lon="-7.42956671072">
        <ele>11.6</ele>
        <time>2011-03-21T08:42:55Z</time>
      </trkpt>
      <trkpt lat="37.1748771672" lon="-7.42948649594">
        <ele>11.6</ele>
        <time>2011-03-21T08:42:58Z</time>
      </trkpt>
      <trkpt lat="37.1748654326" lon="-7.42942623008">
        <ele>11.6</ele>
        <time>2011-03-21T08:43:00Z</time>
      </trkpt>
      <trkpt lat="37.1748500937" lon="-7.42937132863">
        <ele>11.6</ele>
        <time>2011-03-21T08:43:02Z</time>
      </trkpt>
      <trkpt lat="37.1748365988" lon="-7.42931022458">
        <ele>11.6</ele>
        <time>2011-03-21T08:43:04Z</time>
      </trkpt>
      <trkpt lat="37.1748238583" lon="-7.429250294">
        <ele>11.6</ele>
        <time>2011-03-21T08:43:06Z</time>
      </trkpt>
      <trkpt lat="37.1748135486" lon="-7.42918784884">
        <ele>11.6</ele>
        <time>2011-03-21T08:43:08Z</time>
      </trkpt>
      <trkpt lat="37.174797623" lon="-7.4291140043">
        <ele>11.6</ele>
        <time>2011-03-21T08:43:10Z</time>
      </trkpt>
      <trkpt lat="37.1747884029" lon="-7.42906329381">
        <ele>11.6</ele>
        <time>2011-03-21T08:43:12Z</time>
      </trkpt>
      <trkpt lat="37.1747759977" lon="-7.42900051338">
        <ele>11.6</ele>
        <time>2011-03-21T08:43:14Z</time>
      </trkpt>
      <trkpt lat="37.1747677834" lon="-7.42894158862">
        <ele>11.6</ele>
        <time>2011-03-21T08:43:15Z</time>
      </trkpt>
      <trkpt lat="37.1747552944" lon="-7.42888056839">
        <ele>11.6</ele>
        <time>2011-03-21T08:43:18Z</time>
      </trkpt>
      <trkpt lat="37.1747414643" lon="-7.42882365529">
        <ele>11.6</ele>
        <time>2011-03-21T08:43:20Z</time>
      </trkpt>
      <trkpt lat="37.1747305678" lon="-7.42876665837">
        <ele>11.6</ele>
        <time>2011-03-21T08:43:22Z</time>
      </trkpt>
      <trkpt lat="37.1747183302" lon="-7.42869901643">
        <ele>11.6</ele>
        <time>2011-03-21T08:43:24Z</time>
      </trkpt>
      <trkpt lat="37.1747072661" lon="-7.42863766093">
        <ele>11.6</ele>
        <time>2011-03-21T08:43:26Z</time>
      </trkpt>
      <trkpt lat="37.1746959506" lon="-7.42857840089">
        <ele>11.6</ele>
        <time>2011-03-21T08:43:28Z</time>
      </trkpt>
      <trkpt lat="37.174681869" lon="-7.42850321525">
        <ele>11.6</ele>
        <time>2011-03-21T08:43:30Z</time>
      </trkpt>
      <trkpt lat="37.1746736547" lon="-7.42845560606">
        <ele>11.6</ele>
        <time>2011-03-21T08:43:32Z</time>
      </trkpt>
      <trkpt lat="37.1746584835" lon="-7.42839693276">
        <ele>11.6</ele>
        <time>2011-03-21T08:43:34Z</time>
      </trkpt>
      <trkpt lat="37.1746471679" lon="-7.42833884619">
        <ele>11.6</ele>
        <time>2011-03-21T08:43:36Z</time>
      </trkpt>
      <trkpt lat="37.1746339245" lon="-7.42828025671">
        <ele>11.6</ele>
        <time>2011-03-21T08:43:38Z</time>
      </trkpt>
      <trkpt lat="37.1746213516" lon="-7.42823004913">
        <ele>11.6</ele>
        <time>2011-03-21T08:43:40Z</time>
      </trkpt>
      <trkpt lat="37.1746101199" lon="-7.42816877744">
        <ele>11.6</ele>
        <time>2011-03-21T08:43:42Z</time>
      </trkpt>
      <trkpt lat="37.1745946972" lon="-7.42808797593">
        <ele>11.6</ele>
        <time>2011-03-21T08:43:45Z</time>
      </trkpt>
      <trkpt lat="37.1745815376" lon="-7.42802871589">
        <ele>12</ele>
        <time>2011-03-21T08:43:47Z</time>
      </trkpt>
      <trkpt lat="37.1745702221" lon="-7.42796945586">
        <ele>12.4</ele>
        <time>2011-03-21T08:43:49Z</time>
      </trkpt>
      <trkpt lat="37.1745604152" lon="-7.42788555304">
        <ele>12.8</ele>
        <time>2011-03-21T08:43:52Z</time>
      </trkpt>
      <trkpt lat="37.1745517819" lon="-7.42782210206">
        <ele>13</ele>
        <time>2011-03-21T08:43:54Z</time>
      </trkpt>
      <trkpt lat="37.1745411369" lon="-7.4277680388">
        <ele>13</ele>
        <time>2011-03-21T08:43:56Z</time>
      </trkpt>
      <trkpt lat="37.1745294022" lon="-7.42771313736">
        <ele>13.2</ele>
        <time>2011-03-21T08:43:58Z</time>
      </trkpt>
      <trkpt lat="37.1745161588" lon="-7.42765262004">
        <ele>13.2</ele>
        <time>2011-03-21T08:44:00Z</time>
      </trkpt>
      <trkpt lat="37.1745032507" lon="-7.42759336001">
        <ele>13.4</ele>
        <time>2011-03-21T08:44:02Z</time>
      </trkpt>
      <trkpt lat="37.1744916837" lon="-7.42753694982">
        <ele>13.4</ele>
        <time>2011-03-21T08:44:04Z</time>
      </trkpt>
      <trkpt lat="37.1744791108" lon="-7.42747768979">
        <ele>13.4</ele>
        <time>2011-03-21T08:44:06Z</time>
      </trkpt>
      <trkpt lat="37.1744668732" lon="-7.42741809448">
        <ele>13.6</ele>
        <time>2011-03-21T08:44:08Z</time>
      </trkpt>
      <trkpt lat="37.1744556415" lon="-7.42734324411">
        <ele>13.6</ele>
        <time>2011-03-21T08:44:10Z</time>
      </trkpt>
      <trkpt lat="37.1744393806" lon="-7.42726898048">
        <ele>13.6</ele>
        <time>2011-03-21T08:44:13Z</time>
      </trkpt>
      <trkpt lat="37.1744258019" lon="-7.42720930135">
        <ele>13.6</ele>
        <time>2011-03-21T08:44:15Z</time>
      </trkpt>
      <trkpt lat="37.1744129776" lon="-7.4271481973">
        <ele>13.6</ele>
        <time>2011-03-21T08:44:17Z</time>
      </trkpt>
      <trkpt lat="37.1744025841" lon="-7.42708667415">
        <ele>13.6</ele>
        <time>2011-03-21T08:44:19Z</time>
      </trkpt>
      <trkpt lat="37.1743925258" lon="-7.4270259892">
        <ele>13.6</ele>
        <time>2011-03-21T08:44:21Z</time>
      </trkpt>
      <trkpt lat="37.1743816293" lon="-7.4269620353">
        <ele>13.6</ele>
        <time>2011-03-21T08:44:23Z</time>
      </trkpt>
      <trkpt lat="37.174372493" lon="-7.42689565065">
        <ele>13.6</ele>
        <time>2011-03-21T08:44:25Z</time>
      </trkpt>
      <trkpt lat="37.1743589982" lon="-7.42683479806">
        <ele>13.6</ele>
        <time>2011-03-21T08:44:27Z</time>
      </trkpt>
      <trkpt lat="37.1743511192" lon="-7.42677117944">
        <ele>13.6</ele>
        <time>2011-03-21T08:44:29Z</time>
      </trkpt>
      <trkpt lat="37.1743362832" lon="-7.42668434295">
        <ele>13.6</ele>
        <time>2011-03-21T08:44:32Z</time>
      </trkpt>
      <trkpt lat="37.1743242971" lon="-7.42662726221">
        <ele>13.6</ele>
        <time>2011-03-21T08:44:34Z</time>
      </trkpt>
      <trkpt lat="37.1743142388" lon="-7.42656724781">
        <ele>13.8</ele>
        <time>2011-03-21T08:44:36Z</time>
      </trkpt>
      <trkpt lat="37.1743010792" lon="-7.42650388064">
        <ele>13.8</ele>
        <time>2011-03-21T08:44:38Z</time>
      </trkpt>
      <trkpt lat="37.1742900151" lon="-7.42644931448">
        <ele>13.8</ele>
        <time>2011-03-21T08:44:40Z</time>
      </trkpt>
      <trkpt lat="37.1742765203" lon="-7.42638946771">
        <ele>13.8</ele>
        <time>2011-03-21T08:44:42Z</time>
      </trkpt>
      <trkpt lat="37.1742662105" lon="-7.42632895039">
        <ele>13.8</ele>
        <time>2011-03-21T08:44:44Z</time>
      </trkpt>
      <trkpt lat="37.1742574095" lon="-7.4262729593">
        <ele>13.8</ele>
        <time>2011-03-21T08:44:46Z</time>
      </trkpt>
      <trkpt lat="37.1742506202" lon="-7.42621286108">
        <ele>13.8</ele>
        <time>2011-03-21T08:44:47Z</time>
      </trkpt>
      <trkpt lat="37.1742367063" lon="-7.42613675342">
        <ele>13.8</ele>
        <time>2011-03-21T08:44:50Z</time>
      </trkpt>
      <trkpt lat="37.174221535" lon="-7.42609040152">
        <ele>13.8</ele>
        <time>2011-03-21T08:44:52Z</time>
      </trkpt>
      <trkpt lat="37.1742104709" lon="-7.42603013566">
        <ele>13.8</ele>
        <time>2011-03-21T08:44:54Z</time>
      </trkpt>
      <trkpt lat="37.1741963893" lon="-7.42597699441">
        <ele>13.8</ele>
        <time>2011-03-21T08:44:56Z</time>
      </trkpt>
      <trkpt lat="37.1741860796" lon="-7.42591505217">
        <ele>13.8</ele>
        <time>2011-03-21T08:44:58Z</time>
      </trkpt>
      <trkpt lat="37.1741717465" lon="-7.42585419958">
        <ele>13.8</ele>
        <time>2011-03-21T08:45:00Z</time>
      </trkpt>
      <trkpt lat="37.1741564077" lon="-7.42578932367">
        <ele>13.8</ele>
        <time>2011-03-21T08:45:02Z</time>
      </trkpt>
      <trkpt lat="37.1741476905" lon="-7.42573190765">
        <ele>13.8</ele>
        <time>2011-03-21T08:45:04Z</time>
      </trkpt>
      <trkpt lat="37.1741357882" lon="-7.42567323435">
        <ele>13.8</ele>
        <time>2011-03-21T08:45:06Z</time>
      </trkpt>
      <trkpt lat="37.1741226286" lon="-7.42561590216">
        <ele>13.8</ele>
        <time>2011-03-21T08:45:08Z</time>
      </trkpt>
      <trkpt lat="37.1741092176" lon="-7.42554473983">
        <ele>13.8</ele>
        <time>2011-03-21T08:45:10Z</time>
      </trkpt>
      <trkpt lat="37.1740933758" lon="-7.42547039237">
        <ele>13.8</ele>
        <time>2011-03-21T08:45:13Z</time>
      </trkpt>
      <trkpt lat="37.1740818926" lon="-7.42541163526">
        <ele>13.8</ele>
        <time>2011-03-21T08:45:15Z</time>
      </trkpt>
      <trkpt lat="37.1740690683" lon="-7.42535480597">
        <ele>13.8</ele>
        <time>2011-03-21T08:45:17Z</time>
      </trkpt>
      <trkpt lat="37.1740553219" lon="-7.42529982071">
        <ele>13.8</ele>
        <time>2011-03-21T08:45:19Z</time>
      </trkpt>
      <trkpt lat="37.1740405698" lon="-7.42524600891">
        <ele>13.8</ele>
        <time>2011-03-21T08:45:21Z</time>
      </trkpt>
      <trkpt lat="37.1740234707" lon="-7.42518708415">
        <ele>13.8</ele>
        <time>2011-03-21T08:45:23Z</time>
      </trkpt>
      <trkpt lat="37.1740172681" lon="-7.42515364037">
        <ele>13.8</ele>
        <time>2011-03-21T08:45:24Z</time>
      </trkpt>
      <trkpt lat="37.1740152565" lon="-7.42513503256">
        <ele>13.8</ele>
        <time>2011-03-21T08:45:25Z</time>
      </trkpt>
      <trkpt lat="37.1739989118" lon="-7.42507661071">
        <ele>13.8</ele>
        <time>2011-03-21T08:45:27Z</time>
      </trkpt>
      <trkpt lat="37.1739869256" lon="-7.42502070344">
        <ele>13.8</ele>
        <time>2011-03-21T08:45:29Z</time>
      </trkpt>
      <trkpt lat="37.1739646298" lon="-7.42493822554">
        <ele>13.8</ele>
        <time>2011-03-21T08:45:32Z</time>
      </trkpt>
      <trkpt lat="37.1739504644" lon="-7.42488365937">
        <ele>13.8</ele>
        <time>2011-03-21T08:45:34Z</time>
      </trkpt>
      <trkpt lat="37.1739369695" lon="-7.42482892557">
        <ele>13.8</ele>
        <time>2011-03-21T08:45:36Z</time>
      </trkpt>
      <trkpt lat="37.1739226365" lon="-7.42477326975">
        <ele>13.8</ele>
        <time>2011-03-21T08:45:38Z</time>
      </trkpt>
      <trkpt lat="37.173909896" lon="-7.42472012851">
        <ele>13.8</ele>
        <time>2011-03-21T08:45:40Z</time>
      </trkpt>
      <trkpt lat="37.1738972393" lon="-7.42465785099">
        <ele>13.8</ele>
        <time>2011-03-21T08:45:42Z</time>
      </trkpt>
      <trkpt lat="37.1738832415" lon="-7.42460152462">
        <ele>13.8</ele>
        <time>2011-03-21T08:45:44Z</time>
      </trkpt>
      <trkpt lat="37.1738698305" lon="-7.42454964066">
        <ele>13.8</ele>
        <time>2011-03-21T08:45:46Z</time>
      </trkpt>
      <trkpt lat="37.173853402" lon="-7.42448618968">
        <ele>13.8</ele>
        <time>2011-03-21T08:45:48Z</time>
      </trkpt>
      <trkpt lat="37.1738345427" lon="-7.42441988885">
        <ele>13.8</ele>
        <time>2011-03-21T08:45:50Z</time>
      </trkpt>
      <trkpt lat="37.173820964" lon="-7.42434696632">
        <ele>13.8</ele>
        <time>2011-03-21T08:45:53Z</time>
      </trkpt>
      <trkpt lat="37.1738060442" lon="-7.42428862829">
        <ele>13.8</ele>
        <time>2011-03-21T08:45:55Z</time>
      </trkpt>
      <trkpt lat="37.1737874364" lon="-7.42421084426">
        <ele>13.8</ele>
        <time>2011-03-21T08:45:58Z</time>
      </trkpt>
      <trkpt lat="37.1737683257" lon="-7.42415116513">
        <ele>13.8</ele>
        <time>2011-03-21T08:46:00Z</time>
      </trkpt>
      <trkpt lat="37.1737540765" lon="-7.42409550932">
        <ele>13.8</ele>
        <time>2011-03-21T08:46:02Z</time>
      </trkpt>
      <trkpt lat="37.1737402463" lon="-7.42403733893">
        <ele>13.8</ele>
        <time>2011-03-21T08:46:04Z</time>
      </trkpt>
      <trkpt lat="37.173724656" lon="-7.42398210221">
        <ele>13.8</ele>
        <time>2011-03-21T08:46:06Z</time>
      </trkpt>
      <trkpt lat="37.1737069702" lon="-7.42392342891">
        <ele>13.8</ele>
        <time>2011-03-21T08:46:08Z</time>
      </trkpt>
      <trkpt lat="37.1736855963" lon="-7.42384941673">
        <ele>13.8</ele>
        <time>2011-03-21T08:46:10Z</time>
      </trkpt>
      <trkpt lat="37.1736715986" lon="-7.42380633377">
        <ele>13.8</ele>
        <time>2011-03-21T08:46:12Z</time>
      </trkpt>
      <trkpt lat="37.1736596963" lon="-7.42375084559">
        <ele>13.8</ele>
        <time>2011-03-21T08:46:14Z</time>
      </trkpt>
      <trkpt lat="37.1736434354" lon="-7.42369024445">
        <ele>13.8</ele>
        <time>2011-03-21T08:46:16Z</time>
      </trkpt>
      <trkpt lat="37.1736234864" lon="-7.42362645819">
        <ele>13.8</ele>
        <time>2011-03-21T08:46:18Z</time>
      </trkpt>
      <trkpt lat="37.1736092372" lon="-7.42356174993">
        <ele>13.8</ele>
        <time>2011-03-21T08:46:20Z</time>
      </trkpt>
      <trkpt lat="37.1735958262" lon="-7.42350978215">
        <ele>13.8</ele>
        <time>2011-03-21T08:46:22Z</time>
      </trkpt>
      <trkpt lat="37.173587109" lon="-7.42344675026">
        <ele>13.8</ele>
        <time>2011-03-21T08:46:24Z</time>
      </trkpt>
      <trkpt lat="37.173577386" lon="-7.42338422128">
        <ele>13.8</ele>
        <time>2011-03-21T08:46:26Z</time>
      </trkpt>
      <trkpt lat="37.1735605384" lon="-7.42332848165">
        <ele>13.8</ele>
        <time>2011-03-21T08:46:28Z</time>
      </trkpt>
      <trkpt lat="37.1735372367" lon="-7.42325832515">
        <ele>13.8</ele>
        <time>2011-03-21T08:46:30Z</time>
      </trkpt>
      <trkpt lat="37.1735204729" lon="-7.42321683474">
        <ele>13.8</ele>
        <time>2011-03-21T08:46:32Z</time>
      </trkpt>
      <trkpt lat="37.1735012783" lon="-7.4231562336">
        <ele>14</ele>
        <time>2011-03-21T08:46:34Z</time>
      </trkpt>
      <trkpt lat="37.1734859395" lon="-7.42309663829">
        <ele>14.4</ele>
        <time>2011-03-21T08:46:36Z</time>
      </trkpt>
      <trkpt lat="37.1734735343" lon="-7.42306017703">
        <ele>14.6</ele>
        <time>2011-03-21T08:46:37Z</time>
      </trkpt>
      <trkpt lat="37.1734498135" lon="-7.42298423702">
        <ele>14.8</ele>
        <time>2011-03-21T08:46:40Z</time>
      </trkpt>
      <trkpt lat="37.1734369892" lon="-7.42291835528">
        <ele>15</ele>
        <time>2011-03-21T08:46:42Z</time>
      </trkpt>
      <trkpt lat="37.1734205607" lon="-7.42285959816">
        <ele>15.2</ele>
        <time>2011-03-21T08:46:44Z</time>
      </trkpt>
      <trkpt lat="37.1734089936" lon="-7.422805954">
        <ele>15.2</ele>
        <time>2011-03-21T08:46:46Z</time>
      </trkpt>
      <trkpt lat="37.1733874521" lon="-7.42275096874">
        <ele>15.4</ele>
        <time>2011-03-21T08:46:48Z</time>
      </trkpt>
      <trkpt lat="37.1733659945" lon="-7.42269296599">
        <ele>15.4</ele>
        <time>2011-03-21T08:46:50Z</time>
      </trkpt>
      <trkpt lat="37.1733385857" lon="-7.42263110757">
        <ele>15.6</ele>
        <time>2011-03-21T08:46:53Z</time>
      </trkpt>
      <trkpt lat="37.1733192235" lon="-7.42257008734">
        <ele>15.6</ele>
        <time>2011-03-21T08:46:55Z</time>
      </trkpt>
      <trkpt lat="37.1732988555" lon="-7.42251007293">
        <ele>15.6</ele>
        <time>2011-03-21T08:46:57Z</time>
      </trkpt>
      <trkpt lat="37.1732783198" lon="-7.42245508767">
        <ele>15.6</ele>
        <time>2011-03-21T08:46:59Z</time>
      </trkpt>
      <trkpt lat="37.1732619751" lon="-7.4224058021">
        <ele>15.6</ele>
        <time>2011-03-21T08:47:01Z</time>
      </trkpt>
      <trkpt lat="37.1732431158" lon="-7.42234310548">
        <ele>15.6</ele>
        <time>2011-03-21T08:47:03Z</time>
      </trkpt>
      <trkpt lat="37.1732250109" lon="-7.42228242053">
        <ele>15.6</ele>
        <time>2011-03-21T08:47:05Z</time>
      </trkpt>
      <trkpt lat="37.1732044753" lon="-7.42222290904">
        <ele>15.6</ele>
        <time>2011-03-21T08:47:07Z</time>
      </trkpt>
      <trkpt lat="37.1731826823" lon="-7.42216960015">
        <ele>15.6</ele>
        <time>2011-03-21T08:47:09Z</time>
      </trkpt>
      <trkpt lat="37.1731572852" lon="-7.42207706398">
        <ele>15.8</ele>
        <time>2011-03-21T08:47:12Z</time>
      </trkpt>
      <trkpt lat="37.173137923" lon="-7.42201998324">
        <ele>15.8</ele>
        <time>2011-03-21T08:47:14Z</time>
      </trkpt>
      <trkpt lat="37.1731234223" lon="-7.42196944038">
        <ele>15.8</ele>
        <time>2011-03-21T08:47:16Z</time>
      </trkpt>
      <trkpt lat="37.1731094245" lon="-7.42190967743">
        <ele>15.8</ele>
        <time>2011-03-21T08:47:18Z</time>
      </trkpt>
      <trkpt lat="37.1730986957" lon="-7.42184874102">
        <ele>15.8</ele>
        <time>2011-03-21T08:47:20Z</time>
      </trkpt>
      <trkpt lat="37.1730882183" lon="-7.42179492922">
        <ele>15.8</ele>
        <time>2011-03-21T08:47:22Z</time>
      </trkpt>
      <trkpt lat="37.1730829377" lon="-7.42173533392">
        <ele>15.8</ele>
        <time>2011-03-21T08:47:24Z</time>
      </trkpt>
      <trkpt lat="37.1730785791" lon="-7.42167783408">
        <ele>15.8</ele>
        <time>2011-03-21T08:47:26Z</time>
      </trkpt>
      <trkpt lat="37.1730770704" lon="-7.42162226208">
        <ele>15.8</ele>
        <time>2011-03-21T08:47:28Z</time>
      </trkpt>
      <trkpt lat="37.173069862" lon="-7.42155763764">
        <ele>15.8</ele>
        <time>2011-03-21T08:47:30Z</time>
      </trkpt>
      <trkpt lat="37.1730536011" lon="-7.42148873842">
        <ele>15.8</ele>
        <time>2011-03-21T08:47:33Z</time>
      </trkpt>
      <trkpt lat="37.1730376755" lon="-7.42142872401">
        <ele>15.8</ele>
        <time>2011-03-21T08:47:35Z</time>
      </trkpt>
      <trkpt lat="37.1730181456" lon="-7.4213607468">
        <ele>15.8</ele>
        <time>2011-03-21T08:47:37Z</time>
      </trkpt>
      <trkpt lat="37.1729958498" lon="-7.42128422006">
        <ele>15.8</ele>
        <time>2011-03-21T08:47:40Z</time>
      </trkpt>
      <trkpt lat="37.1729783316" lon="-7.42122630113">
        <ele>15.8</ele>
        <time>2011-03-21T08:47:42Z</time>
      </trkpt>
      <trkpt lat="37.172952683" lon="-7.42111155292">
        <ele>15.8</ele>
        <time>2011-03-21T08:47:46Z</time>
      </trkpt>
      <trkpt lat="37.1729355001" lon="-7.42104433008">
        <ele>15.8</ele>
        <time>2011-03-21T08:47:48Z</time>
      </trkpt>
      <trkpt lat="37.1729215861" lon="-7.42102178277">
        <ele>15.8</ele>
        <time>2011-03-21T08:47:49Z</time>
      </trkpt>
      <trkpt lat="37.1729047385" lon="-7.42093268317">
        <ele>15.8</ele>
        <time>2011-03-21T08:47:52Z</time>
      </trkpt>
      <trkpt lat="37.1728924171" lon="-7.42087116003">
        <ele>15.8</ele>
        <time>2011-03-21T08:47:54Z</time>
      </trkpt>
      <trkpt lat="37.1728873042" lon="-7.42080703849">
        <ele>15.8</ele>
        <time>2011-03-21T08:47:56Z</time>
      </trkpt>
      <trkpt lat="37.1728811854" lon="-7.42074836519">
        <ele>15.8</ele>
        <time>2011-03-21T08:47:58Z</time>
      </trkpt>
      <trkpt lat="37.1728678582" lon="-7.42068742878">
        <ele>15.8</ele>
        <time>2011-03-21T08:48:00Z</time>
      </trkpt>
      <trkpt lat="37.1728533575" lon="-7.42063303025">
        <ele>15.8</ele>
        <time>2011-03-21T08:48:02Z</time>
      </trkpt>
      <trkpt lat="37.1728453947" lon="-7.42057444077">
        <ele>15.8</ele>
        <time>2011-03-21T08:48:04Z</time>
      </trkpt>
      <trkpt lat="37.1728314807" lon="-7.42051543219">
        <ele>15.8</ele>
        <time>2011-03-21T08:48:06Z</time>
      </trkpt>
      <trkpt lat="37.1728178182" lon="-7.42045491487">
        <ele>15.8</ele>
        <time>2011-03-21T08:48:08Z</time>
      </trkpt>
      <trkpt lat="37.1728056645" lon="-7.42038517746">
        <ele>15.8</ele>
        <time>2011-03-21T08:48:10Z</time>
      </trkpt>
      <trkpt lat="37.1727898227" lon="-7.42030764489">
        <ele>15.8</ele>
        <time>2011-03-21T08:48:13Z</time>
      </trkpt>
      <trkpt lat="37.1727780042" lon="-7.42024679229">
        <ele>15.8</ele>
        <time>2011-03-21T08:48:15Z</time>
      </trkpt>
      <trkpt lat="37.1727656828" lon="-7.42018853809">
        <ele>15.8</ele>
        <time>2011-03-21T08:48:17Z</time>
      </trkpt>
      <trkpt lat="37.1727598993" lon="-7.42012483565">
        <ele>15.8</ele>
        <time>2011-03-21T08:48:19Z</time>
      </trkpt>
      <trkpt lat="37.1727550378" lon="-7.42005861864">
        <ele>15.8</ele>
        <time>2011-03-21T08:48:21Z</time>
      </trkpt>
      <trkpt lat="37.172746153" lon="-7.4199966764">
        <ele>15.8</ele>
        <time>2011-03-21T08:48:23Z</time>
      </trkpt>
      <trkpt lat="37.1727387769" lon="-7.41993741637">
        <ele>15.8</ele>
        <time>2011-03-21T08:48:25Z</time>
      </trkpt>
      <trkpt lat="37.1727270422" lon="-7.41988142527">
        <ele>15.8</ele>
        <time>2011-03-21T08:48:27Z</time>
      </trkpt>
      <trkpt lat="37.1727164811" lon="-7.41982149469">
        <ele>15.8</ele>
        <time>2011-03-21T08:48:29Z</time>
      </trkpt>
      <trkpt lat="37.1727005554" lon="-7.41973264655">
        <ele>15.8</ele>
        <time>2011-03-21T08:48:32Z</time>
      </trkpt>
      <trkpt lat="37.1726922574" lon="-7.41966835738">
        <ele>15.8</ele>
        <time>2011-03-21T08:48:34Z</time>
      </trkpt>
      <trkpt lat="37.1726795169" lon="-7.41960616368">
        <ele>15.8</ele>
        <time>2011-03-21T08:48:36Z</time>
      </trkpt>
      <trkpt lat="37.1726687042" lon="-7.4195405334">
        <ele>15.8</ele>
        <time>2011-03-21T08:48:38Z</time>
      </trkpt>
      <trkpt lat="37.1726580592" lon="-7.41948068663">
        <ele>15.8</ele>
        <time>2011-03-21T08:48:40Z</time>
      </trkpt>
      <trkpt lat="37.1726469113" lon="-7.4194165651">
        <ele>15.8</ele>
        <time>2011-03-21T08:48:42Z</time>
      </trkpt>
      <trkpt lat="37.172638697" lon="-7.41935914908">
        <ele>15.8</ele>
        <time>2011-03-21T08:48:44Z</time>
      </trkpt>
      <trkpt lat="37.1726288902" lon="-7.41929896704">
        <ele>15.8</ele>
        <time>2011-03-21T08:48:46Z</time>
      </trkpt>
      <trkpt lat="37.1726157306" lon="-7.41923618661">
        <ele>15.8</ele>
        <time>2011-03-21T08:48:48Z</time>
      </trkpt>
      <trkpt lat="37.1726037445" lon="-7.41916393463">
        <ele>15.8</ele>
        <time>2011-03-21T08:48:50Z</time>
      </trkpt>
      <trkpt lat="37.1725953626" lon="-7.41911733127">
        <ele>15.8</ele>
        <time>2011-03-21T08:48:52Z</time>
      </trkpt>
      <trkpt lat="37.1725903335" lon="-7.4190495217">
        <ele>15.8</ele>
        <time>2011-03-21T08:48:54Z</time>
      </trkpt>
      <trkpt lat="37.172581281" lon="-7.4189842267">
        <ele>15.8</ele>
        <time>2011-03-21T08:48:56Z</time>
      </trkpt>
      <trkpt lat="37.172574324" lon="-7.41892588867">
        <ele>15.8</ele>
        <time>2011-03-21T08:48:58Z</time>
      </trkpt>
      <trkpt lat="37.1725632599" lon="-7.41886260533">
        <ele>15.8</ele>
        <time>2011-03-21T08:49:00Z</time>
      </trkpt>
      <trkpt lat="37.1725526149" lon="-7.41880099836">
        <ele>15.8</ele>
        <time>2011-03-21T08:49:02Z</time>
      </trkpt>
      <trkpt lat="37.1725449874" lon="-7.41874215743">
        <ele>15.8</ele>
        <time>2011-03-21T08:49:04Z</time>
      </trkpt>
      <trkpt lat="37.172537276" lon="-7.41868004755">
        <ele>15.8</ele>
        <time>2011-03-21T08:49:06Z</time>
      </trkpt>
      <trkpt lat="37.1725283912" lon="-7.41862003314">
        <ele>15.8</ele>
        <time>2011-03-21T08:49:08Z</time>
      </trkpt>
      <trkpt lat="37.1725224401" lon="-7.41855096629">
        <ele>15.8</ele>
        <time>2011-03-21T08:49:10Z</time>
      </trkpt>
      <trkpt lat="37.1725102025" lon="-7.41847460718">
        <ele>15.8</ele>
        <time>2011-03-21T08:49:13Z</time>
      </trkpt>
      <trkpt lat="37.1725046704" lon="-7.41841551478">
        <ele>15.6</ele>
        <time>2011-03-21T08:49:15Z</time>
      </trkpt>
      <trkpt lat="37.1724991384" lon="-7.41834980069">
        <ele>15.2</ele>
        <time>2011-03-21T08:49:17Z</time>
      </trkpt>
      <trkpt lat="37.1724931034" lon="-7.41828861282">
        <ele>15</ele>
        <time>2011-03-21T08:49:19Z</time>
      </trkpt>
      <trkpt lat="37.1724869846" lon="-7.41823144826">
        <ele>14.6</ele>
        <time>2011-03-21T08:49:21Z</time>
      </trkpt>
      <trkpt lat="37.1724804467" lon="-7.41817093094">
        <ele>14.4</ele>
        <time>2011-03-21T08:49:23Z</time>
      </trkpt>
      <trkpt lat="37.1724725678" lon="-7.41810463011">
        <ele>14.4</ele>
        <time>2011-03-21T08:49:25Z</time>
      </trkpt>
      <trkpt lat="37.1724646888" lon="-7.41804402897">
        <ele>14.2</ele>
        <time>2011-03-21T08:49:27Z</time>
      </trkpt>
      <trkpt lat="37.172454379" lon="-7.41798569095">
        <ele>14.2</ele>
        <time>2011-03-21T08:49:29Z</time>
      </trkpt>
      <trkpt lat="37.1724375314" lon="-7.41789717809">
        <ele>14</ele>
        <time>2011-03-21T08:49:32Z</time>
      </trkpt>
      <trkpt lat="37.1724269702" lon="-7.4178438692">
        <ele>14</ele>
        <time>2011-03-21T08:49:34Z</time>
      </trkpt>
      <trkpt lat="37.1724123857" lon="-7.41778988977">
        <ele>14</ele>
        <time>2011-03-21T08:49:36Z</time>
      </trkpt>
      <trkpt lat="37.1724030818" lon="-7.41772811516">
        <ele>13.8</ele>
        <time>2011-03-21T08:49:38Z</time>
      </trkpt>
      <trkpt lat="37.1723919339" lon="-7.41766550237">
        <ele>13.8</ele>
        <time>2011-03-21T08:49:40Z</time>
      </trkpt>
      <trkpt lat="37.1723796963" lon="-7.41760263812">
        <ele>13.8</ele>
        <time>2011-03-21T08:49:42Z</time>
      </trkpt>
      <trkpt lat="37.1723511978" lon="-7.41745193156">
        <ele>13.8</ele>
        <time>2011-03-21T08:49:47Z</time>
      </trkpt>
      <trkpt lat="37.1723403014" lon="-7.41739183334">
        <ele>13.8</ele>
        <time>2011-03-21T08:49:49Z</time>
      </trkpt>
      <trkpt lat="37.1723091207" lon="-7.41721472379">
        <ele>13.8</ele>
        <time>2011-03-21T08:49:55Z</time>
      </trkpt>
      <trkpt lat="37.1722962964" lon="-7.41715973852">
        <ele>13.8</ele>
        <time>2011-03-21T08:49:57Z</time>
      </trkpt>
      <trkpt lat="37.1722865734" lon="-7.41710223869">
        <ele>13.8</ele>
        <time>2011-03-21T08:49:59Z</time>
      </trkpt>
      <trkpt lat="37.1722745035" lon="-7.41704440358">
        <ele>13.8</ele>
        <time>2011-03-21T08:50:01Z</time>
      </trkpt>
      <trkpt lat="37.1722626012" lon="-7.41699034033">
        <ele>13.8</ele>
        <time>2011-03-21T08:50:03Z</time>
      </trkpt>
      <trkpt lat="37.1722437419" lon="-7.41691079609">
        <ele>13.8</ele>
        <time>2011-03-21T08:50:06Z</time>
      </trkpt>
      <trkpt lat="37.1722307499" lon="-7.41684600401">
        <ele>13.8</ele>
        <time>2011-03-21T08:50:08Z</time>
      </trkpt>
      <trkpt lat="37.1722153272" lon="-7.41677945172">
        <ele>13.8</ele>
        <time>2011-03-21T08:50:10Z</time>
      </trkpt>
      <trkpt lat="37.1721967194" lon="-7.41670711592">
        <ele>13.8</ele>
        <time>2011-03-21T08:50:13Z</time>
      </trkpt>
      <trkpt lat="37.1721836437" lon="-7.41665565106">
        <ele>13.8</ele>
        <time>2011-03-21T08:50:15Z</time>
      </trkpt>
      <trkpt lat="37.1721764352" lon="-7.4165984865">
        <ele>13.8</ele>
        <time>2011-03-21T08:50:17Z</time>
      </trkpt>
      <trkpt lat="37.1721655388" lon="-7.41654341742">
        <ele>13.8</ele>
        <time>2011-03-21T08:50:19Z</time>
      </trkpt>
      <trkpt lat="37.1721451707" lon="-7.41646546575">
        <ele>13.8</ele>
        <time>2011-03-21T08:50:22Z</time>
      </trkpt>
      <trkpt lat="37.1721303348" lon="-7.41638256876">
        <ele>13.8</ele>
        <time>2011-03-21T08:50:25Z</time>
      </trkpt>
      <trkpt lat="37.1721157503" lon="-7.41632666148">
        <ele>13.8</ele>
        <time>2011-03-21T08:50:27Z</time>
      </trkpt>
      <trkpt lat="37.1720952984" lon="-7.41623529877">
        <ele>13.8</ele>
        <time>2011-03-21T08:50:30Z</time>
      </trkpt>
      <trkpt lat="37.1720747628" lon="-7.41616287916">
        <ele>13.8</ele>
        <time>2011-03-21T08:50:33Z</time>
      </trkpt>
      <trkpt lat="37.1720623576" lon="-7.41610487641">
        <ele>13.8</ele>
        <time>2011-03-21T08:50:35Z</time>
      </trkpt>
      <trkpt lat="37.1720449232" lon="-7.41604603547">
        <ele>13.8</ele>
        <time>2011-03-21T08:50:37Z</time>
      </trkpt>
      <trkpt lat="37.1720114794" lon="-7.41590178297">
        <ele>13.8</ele>
        <time>2011-03-21T08:50:42Z</time>
      </trkpt>
      <trkpt lat="37.1720001639" lon="-7.4158423553">
        <ele>13.8</ele>
        <time>2011-03-21T08:50:44Z</time>
      </trkpt>
      <trkpt lat="37.1719880939" lon="-7.41579021988">
        <ele>13.8</ele>
        <time>2011-03-21T08:50:46Z</time>
      </trkpt>
      <trkpt lat="37.1719734256" lon="-7.41571495042">
        <ele>13.8</ele>
        <time>2011-03-21T08:50:48Z</time>
      </trkpt>
      <trkpt lat="37.1719621101" lon="-7.41565652858">
        <ele>13.4</ele>
        <time>2011-03-21T08:50:50Z</time>
      </trkpt>
      <trkpt lat="37.1719484476" lon="-7.41560053749">
        <ele>13.2</ele>
        <time>2011-03-21T08:50:52Z</time>
      </trkpt>
      <trkpt lat="37.17193621" lon="-7.4155406069">
        <ele>12.8</ele>
        <time>2011-03-21T08:50:54Z</time>
      </trkpt>
      <trkpt lat="37.1719253135" lon="-7.41548159832">
        <ele>12.6</ele>
        <time>2011-03-21T08:50:56Z</time>
      </trkpt>
      <trkpt lat="37.1719129921" lon="-7.41541898553">
        <ele>12.4</ele>
        <time>2011-03-21T08:50:58Z</time>
      </trkpt>
      <trkpt lat="37.1718981562" lon="-7.41536224007">
        <ele>12.2</ele>
        <time>2011-03-21T08:51:00Z</time>
      </trkpt>
      <trkpt lat="37.1718841584" lon="-7.41530256094">
        <ele>12.2</ele>
        <time>2011-03-21T08:51:02Z</time>
      </trkpt>
      <trkpt lat="37.1718711664" lon="-7.41524254654">
        <ele>12</ele>
        <time>2011-03-21T08:51:04Z</time>
      </trkpt>
      <trkpt lat="37.1718565819" lon="-7.41518563344">
        <ele>12</ele>
        <time>2011-03-21T08:51:06Z</time>
      </trkpt>
      <trkpt lat="37.1718450987" lon="-7.41512486466">
        <ele>11.8</ele>
        <time>2011-03-21T08:51:08Z</time>
      </trkpt>
      <trkpt lat="37.1718328612" lon="-7.41505965348">
        <ele>11.8</ele>
        <time>2011-03-21T08:51:10Z</time>
      </trkpt>
      <trkpt lat="37.1718187796" lon="-7.41500131546">
        <ele>11.8</ele>
        <time>2011-03-21T08:51:12Z</time>
      </trkpt>
      <trkpt lat="37.1718017643" lon="-7.4149406305">
        <ele>11.8</ele>
        <time>2011-03-21T08:51:14Z</time>
      </trkpt>
      <trkpt lat="37.1717866769" lon="-7.41488287921">
        <ele>11.8</ele>
        <time>2011-03-21T08:51:16Z</time>
      </trkpt>
      <trkpt lat="37.1717757804" lon="-7.41482068551">
        <ele>11.8</ele>
        <time>2011-03-21T08:51:18Z</time>
      </trkpt>
      <trkpt lat="37.1717621179" lon="-7.41476100638">
        <ele>11.6</ele>
        <time>2011-03-21T08:51:20Z</time>
      </trkpt>
      <trkpt lat="37.1717486231" lon="-7.41470224926">
        <ele>11.6</ele>
        <time>2011-03-21T08:51:22Z</time>
      </trkpt>
      <trkpt lat="37.1717347091" lon="-7.41464634199">
        <ele>11.6</ele>
        <time>2011-03-21T08:51:24Z</time>
      </trkpt>
      <trkpt lat="37.1717212981" lon="-7.41459009944">
        <ele>11.6</ele>
        <time>2011-03-21T08:51:26Z</time>
      </trkpt>
      <trkpt lat="37.1717073003" lon="-7.41453025268">
        <ele>11.6</ele>
        <time>2011-03-21T08:51:28Z</time>
      </trkpt>
      <trkpt lat="37.1716922129" lon="-7.41446923244">
        <ele>11.6</ele>
        <time>2011-03-21T08:51:30Z</time>
      </trkpt>
      <trkpt lat="37.171676874" lon="-7.41441164879">
        <ele>11.6</ele>
        <time>2011-03-21T08:51:32Z</time>
      </trkpt>
      <trkpt lat="37.1716606969" lon="-7.41435649589">
        <ele>11.6</ele>
        <time>2011-03-21T08:51:34Z</time>
      </trkpt>
      <trkpt lat="37.1716539076" lon="-7.41432732688">
        <ele>11.6</ele>
        <time>2011-03-21T08:51:35Z</time>
      </trkpt>
      <trkpt lat="37.1716469506" lon="-7.41429824168">
        <ele>11.6</ele>
        <time>2011-03-21T08:51:36Z</time>
      </trkpt>
      <trkpt lat="37.1716296839" lon="-7.41421676962">
        <ele>11.6</ele>
        <time>2011-03-21T08:51:39Z</time>
      </trkpt>
      <trkpt lat="37.1716142612" lon="-7.4141478704">
        <ele>11.6</ele>
        <time>2011-03-21T08:51:41Z</time>
      </trkpt>
      <trkpt lat="37.1716001796" lon="-7.41408961619">
        <ele>11.6</ele>
        <time>2011-03-21T08:51:43Z</time>
      </trkpt>
      <trkpt lat="37.171579644" lon="-7.41400177388">
        <ele>11.6</ele>
        <time>2011-03-21T08:51:46Z</time>
      </trkpt>
      <trkpt lat="37.1715678255" lon="-7.41394016692">
        <ele>11.6</ele>
        <time>2011-03-21T08:51:48Z</time>
      </trkpt>
      <trkpt lat="37.1715574319" lon="-7.41387830849">
        <ele>11.6</ele>
        <time>2011-03-21T08:51:50Z</time>
      </trkpt>
      <trkpt lat="37.1715441047" lon="-7.41382282032">
        <ele>11.6</ele>
        <time>2011-03-21T08:51:52Z</time>
      </trkpt>
      <trkpt lat="37.1715297716" lon="-7.41376775123">
        <ele>11.6</ele>
        <time>2011-03-21T08:51:54Z</time>
      </trkpt>
      <trkpt lat="37.171516193" lon="-7.4137063119">
        <ele>11.6</ele>
        <time>2011-03-21T08:51:56Z</time>
      </trkpt>
      <trkpt lat="37.1715020276" lon="-7.41364763861">
        <ele>11.6</ele>
        <time>2011-03-21T08:51:58Z</time>
      </trkpt>
      <trkpt lat="37.17148979" lon="-7.41358636692">
        <ele>11.6</ele>
        <time>2011-03-21T08:52:00Z</time>
      </trkpt>
      <trkpt lat="37.1714772171" lon="-7.4135276098">
        <ele>11.6</ele>
        <time>2011-03-21T08:52:02Z</time>
      </trkpt>
      <trkpt lat="37.1714653148" lon="-7.41346751157">
        <ele>11.6</ele>
        <time>2011-03-21T08:52:04Z</time>
      </trkpt>
      <trkpt lat="37.1714511494" lon="-7.413408503">
        <ele>11.6</ele>
        <time>2011-03-21T08:52:06Z</time>
      </trkpt>
      <trkpt lat="37.1714311167" lon="-7.41333490992">
        <ele>11.6</ele>
        <time>2011-03-21T08:52:09Z</time>
      </trkpt>
      <trkpt lat="37.171416616" lon="-7.41326726798">
        <ele>11.6</ele>
        <time>2011-03-21T08:52:11Z</time>
      </trkpt>
      <trkpt lat="37.1714053843" lon="-7.41320851086">
        <ele>11.6</ele>
        <time>2011-03-21T08:52:13Z</time>
      </trkpt>
      <trkpt lat="37.1713860221" lon="-7.41312108765">
        <ele>11.6</ele>
        <time>2011-03-21T08:52:16Z</time>
      </trkpt>
      <trkpt lat="37.171368001" lon="-7.41306501274">
        <ele>11.6</ele>
        <time>2011-03-21T08:52:18Z</time>
      </trkpt>
      <trkpt lat="37.1713495608" lon="-7.41301170385">
        <ele>11.6</ele>
        <time>2011-03-21T08:52:20Z</time>
      </trkpt>
      <trkpt lat="37.1713359821" lon="-7.41295554512">
        <ele>11.6</ele>
        <time>2011-03-21T08:52:22Z</time>
      </trkpt>
      <trkpt lat="37.1713237445" lon="-7.41289888348">
        <ele>11.6</ele>
        <time>2011-03-21T08:52:24Z</time>
      </trkpt>
      <trkpt lat="37.171302706" lon="-7.4128252904">
        <ele>11.6</ele>
        <time>2011-03-21T08:52:27Z</time>
      </trkpt>
      <trkpt lat="37.1712811645" lon="-7.41276108504">
        <ele>11.6</ele>
        <time>2011-03-21T08:52:29Z</time>
      </trkpt>
      <trkpt lat="37.1712631434" lon="-7.41269964572">
        <ele>11.6</ele>
        <time>2011-03-21T08:52:31Z</time>
      </trkpt>
      <trkpt lat="37.1712493133" lon="-7.41263787111">
        <ele>11.6</ele>
        <time>2011-03-21T08:52:33Z</time>
      </trkpt>
      <trkpt lat="37.1712340582" lon="-7.41257861108">
        <ele>11.6</ele>
        <time>2011-03-21T08:52:35Z</time>
      </trkpt>
      <trkpt lat="37.171219809" lon="-7.41251557919">
        <ele>11.6</ele>
        <time>2011-03-21T08:52:37Z</time>
      </trkpt>
      <trkpt lat="37.1712064818" lon="-7.41245363695">
        <ele>11.6</ele>
        <time>2011-03-21T08:52:39Z</time>
      </trkpt>
      <trkpt lat="37.1711821743" lon="-7.4123638668">
        <ele>11.6</ele>
        <time>2011-03-21T08:52:42Z</time>
      </trkpt>
      <trkpt lat="37.1711665001" lon="-7.41230586405">
        <ele>11.6</ele>
        <time>2011-03-21T08:52:44Z</time>
      </trkpt>
      <trkpt lat="37.1711533405" lon="-7.41224568201">
        <ele>11.6</ele>
        <time>2011-03-21T08:52:46Z</time>
      </trkpt>
      <trkpt lat="37.1711412706" lon="-7.41218566761">
        <ele>11.6</ele>
        <time>2011-03-21T08:52:48Z</time>
      </trkpt>
      <trkpt lat="37.1711271052" lon="-7.4121207917">
        <ele>11.6</ele>
        <time>2011-03-21T08:52:50Z</time>
      </trkpt>
      <trkpt lat="37.1711151191" lon="-7.41206069348">
        <ele>11.6</ele>
        <time>2011-03-21T08:52:52Z</time>
      </trkpt>
      <trkpt lat="37.1711033844" lon="-7.41200009234">
        <ele>11.6</ele>
        <time>2011-03-21T08:52:54Z</time>
      </trkpt>
      <trkpt lat="37.1710835193" lon="-7.41191484842">
        <ele>11.6</ele>
        <time>2011-03-21T08:52:57Z</time>
      </trkpt>
      <trkpt lat="37.1710701083" lon="-7.41185868969">
        <ele>11.6</ele>
        <time>2011-03-21T08:52:59Z</time>
      </trkpt>
      <trkpt lat="37.1710601338" lon="-7.41179942966">
        <ele>11.6</ele>
        <time>2011-03-21T08:53:01Z</time>
      </trkpt>
      <trkpt lat="37.1710513328" lon="-7.41173857706">
        <ele>11.6</ele>
        <time>2011-03-21T08:53:03Z</time>
      </trkpt>
      <trkpt lat="37.1710403525" lon="-7.41167847884">
        <ele>11.6</ele>
        <time>2011-03-21T08:53:05Z</time>
      </trkpt>
      <trkpt lat="37.1710287855" lon="-7.41162089519">
        <ele>11.6</ele>
        <time>2011-03-21T08:53:07Z</time>
      </trkpt>
      <trkpt lat="37.1710226667" lon="-7.41156347917">
        <ele>11.6</ele>
        <time>2011-03-21T08:53:09Z</time>
      </trkpt>
      <trkpt lat="37.1710325573" lon="-7.41154512281">
        <ele>11.6</ele>
        <time>2011-03-21T08:53:10Z</time>
      </trkpt>
      <trkpt lat="37.1710641571" lon="-7.4115865294">
        <ele>11.6</ele>
        <time>2011-03-21T08:53:13Z</time>
      </trkpt>
      <trkpt lat="37.1710666717" lon="-7.41161754243">
        <ele>11.6</ele>
        <time>2011-03-21T08:53:14Z</time>
      </trkpt>
      <trkpt lat="37.1710854471" lon="-7.41171385046">
        <ele>11.6</ele>
        <time>2011-03-21T08:53:17Z</time>
      </trkpt>
      <trkpt lat="37.1710955892" lon="-7.41177830727">
        <ele>11.6</ele>
        <time>2011-03-21T08:53:19Z</time>
      </trkpt>
      <trkpt lat="37.1711088326" lon="-7.41184561392">
        <ele>11.2</ele>
        <time>2011-03-21T08:53:21Z</time>
      </trkpt>
      <trkpt lat="37.1711233333" lon="-7.41191048983">
        <ele>11</ele>
        <time>2011-03-21T08:53:23Z</time>
      </trkpt>
      <trkpt lat="37.1711371635" lon="-7.41197570101">
        <ele>10.6</ele>
        <time>2011-03-21T08:53:25Z</time>
      </trkpt>
      <trkpt lat="37.1711538434" lon="-7.41204091219">
        <ele>10.4</ele>
        <time>2011-03-21T08:53:27Z</time>
      </trkpt>
      <trkpt lat="37.1711690985" lon="-7.41210612338">
        <ele>10.2</ele>
        <time>2011-03-21T08:53:29Z</time>
      </trkpt>
      <trkpt lat="37.1711845212" lon="-7.41216898763">
        <ele>10.2</ele>
        <time>2011-03-21T08:53:31Z</time>
      </trkpt>
      <trkpt lat="37.1711986866" lon="-7.41222506254">
        <ele>10</ele>
        <time>2011-03-21T08:53:33Z</time>
      </trkpt>
      <trkpt lat="37.1712126006" lon="-7.41230804335">
        <ele>10</ele>
        <time>2011-03-21T08:53:36Z</time>
      </trkpt>
      <trkpt lat="37.171227688" lon="-7.4123823908">
        <ele>9.2</ele>
        <time>2011-03-21T08:53:39Z</time>
      </trkpt>
      <trkpt lat="37.1712428592" lon="-7.41244760198">
        <ele>9</ele>
        <time>2011-03-21T08:53:41Z</time>
      </trkpt>
      <trkpt lat="37.1712565217" lon="-7.4125063591">
        <ele>8.6</ele>
        <time>2011-03-21T08:53:43Z</time>
      </trkpt>
      <trkpt lat="37.1712666638" lon="-7.41256645732">
        <ele>8.4</ele>
        <time>2011-03-21T08:53:45Z</time>
      </trkpt>
      <trkpt lat="37.1712742913" lon="-7.41262806429">
        <ele>8.2</ele>
        <time>2011-03-21T08:53:47Z</time>
      </trkpt>
      <trkpt lat="37.1712809969" lon="-7.41269277256">
        <ele>8.2</ele>
        <time>2011-03-21T08:53:49Z</time>
      </trkpt>
      <trkpt lat="37.1712884567" lon="-7.41275228405">
        <ele>8</ele>
        <time>2011-03-21T08:53:51Z</time>
      </trkpt>
      <trkpt lat="37.1713022869" lon="-7.41280995152">
        <ele>7.8</ele>
        <time>2011-03-21T08:53:54Z</time>
      </trkpt>
      <trkpt lat="37.171320308" lon="-7.4128270506">
        <ele>7.8</ele>
        <time>2011-03-21T08:54:00Z</time>
      </trkpt>
      <trkpt lat="37.1713273488" lon="-7.41286376332">
        <ele>7.6</ele>
        <time>2011-03-21T08:54:04Z</time>
      </trkpt>
      <trkpt lat="37.1713376585" lon="-7.41289209414">
        <ele>7.6</ele>
        <time>2011-03-21T08:54:08Z</time>
      </trkpt>
      <trkpt lat="37.1713596191" lon="-7.4129051699">
        <ele>6.2</ele>
        <time>2011-03-21T08:54:17Z</time>
      </trkpt>
      <trkpt lat="37.1713857706" lon="-7.41292687902">
        <ele>6</ele>
        <time>2011-03-21T08:54:20Z</time>
      </trkpt>
      <trkpt lat="37.1713950745" lon="-7.41294657649">
        <ele>6</ele>
        <time>2011-03-21T08:54:21Z</time>
      </trkpt>
      <trkpt lat="37.1714149396" lon="-7.41302000193">
        <ele>5.8</ele>
        <time>2011-03-21T08:54:24Z</time>
      </trkpt>
      <trkpt lat="37.1714294403" lon="-7.41307641212">
        <ele>5.8</ele>
        <time>2011-03-21T08:54:26Z</time>
      </trkpt>
      <trkpt lat="37.1714356429" lon="-7.41310700606">
        <ele>5.8</ele>
        <time>2011-03-21T08:54:27Z</time>
      </trkpt>
      <trkpt lat="37.1714571006" lon="-7.41320054806">
        <ele>5.6</ele>
        <time>2011-03-21T08:54:30Z</time>
      </trkpt>
      <trkpt lat="37.1714707631" lon="-7.4132624903">
        <ele>5.6</ele>
        <time>2011-03-21T08:54:32Z</time>
      </trkpt>
      <trkpt lat="37.1714853476" lon="-7.4133225047">
        <ele>5.6</ele>
        <time>2011-03-21T08:54:34Z</time>
      </trkpt>
      <trkpt lat="37.171495322" lon="-7.4133833573">
        <ele>5.6</ele>
        <time>2011-03-21T08:54:36Z</time>
      </trkpt>
      <trkpt lat="37.171524072" lon="-7.41353926064">
        <ele>5.6</ele>
        <time>2011-03-21T08:54:41Z</time>
      </trkpt>
      <trkpt lat="37.1715342979" lon="-7.41360279544">
        <ele>5.6</ele>
        <time>2011-03-21T08:54:43Z</time>
      </trkpt>
      <trkpt lat="37.1715438532" lon="-7.41366239075">
        <ele>5.6</ele>
        <time>2011-03-21T08:54:45Z</time>
      </trkpt>
      <trkpt lat="37.1715496368" lon="-7.41369239795">
        <ele>5.6</ele>
        <time>2011-03-21T08:54:46Z</time>
      </trkpt>
      <trkpt lat="37.1715692504" lon="-7.41378300629">
        <ele>5.4</ele>
        <time>2011-03-21T08:54:49Z</time>
      </trkpt>
      <trkpt lat="37.1715788896" lon="-7.41384293688">
        <ele>5.4</ele>
        <time>2011-03-21T08:54:51Z</time>
      </trkpt>
      <trkpt lat="37.171588864" lon="-7.41390387329">
        <ele>5.4</ele>
        <time>2011-03-21T08:54:53Z</time>
      </trkpt>
      <trkpt lat="37.1715999282" lon="-7.41396698899">
        <ele>5.4</ele>
        <time>2011-03-21T08:54:55Z</time>
      </trkpt>
      <trkpt lat="37.1716127525" lon="-7.41402976943">
        <ele>5.4</ele>
        <time>2011-03-21T08:54:57Z</time>
      </trkpt>
      <trkpt lat="37.1716242357" lon="-7.41409062202">
        <ele>5.4</ele>
        <time>2011-03-21T08:54:59Z</time>
      </trkpt>
      <trkpt lat="37.1716325337" lon="-7.41415315099">
        <ele>5.4</ele>
        <time>2011-03-21T08:55:01Z</time>
      </trkpt>
      <trkpt lat="37.1716438493" lon="-7.41421467414">
        <ele>5.8</ele>
        <time>2011-03-21T08:55:03Z</time>
      </trkpt>
      <trkpt lat="37.1716557516" lon="-7.41427619729">
        <ele>6.2</ele>
        <time>2011-03-21T08:55:05Z</time>
      </trkpt>
      <trkpt lat="37.1716675701" lon="-7.41433964827">
        <ele>6.4</ele>
        <time>2011-03-21T08:55:07Z</time>
      </trkpt>
      <trkpt lat="37.1716800591" lon="-7.41440268016">
        <ele>6.6</ele>
        <time>2011-03-21T08:55:09Z</time>
      </trkpt>
      <trkpt lat="37.1716927158" lon="-7.41446738843">
        <ele>6.8</ele>
        <time>2011-03-21T08:55:11Z</time>
      </trkpt>
      <trkpt lat="37.1717044504" lon="-7.41452698373">
        <ele>7</ele>
        <time>2011-03-21T08:55:13Z</time>
      </trkpt>
      <trkpt lat="37.1717174424" lon="-7.41458792015">
        <ele>7.2</ele>
        <time>2011-03-21T08:55:15Z</time>
      </trkpt>
      <trkpt lat="37.1717304343" lon="-7.41464910802">
        <ele>7.2</ele>
        <time>2011-03-21T08:55:17Z</time>
      </trkpt>
      <trkpt lat="37.1717423366" lon="-7.41470736222">
        <ele>7.6</ele>
        <time>2011-03-21T08:55:19Z</time>
      </trkpt>
      <trkpt lat="37.1717575917" lon="-7.41476737663">
        <ele>8</ele>
        <time>2011-03-21T08:55:21Z</time>
      </trkpt>
      <trkpt lat="37.17177226" lon="-7.41482764249">
        <ele>8.4</ele>
        <time>2011-03-21T08:55:23Z</time>
      </trkpt>
      <trkpt lat="37.1717832403" lon="-7.41488832744">
        <ele>8.6</ele>
        <time>2011-03-21T08:55:25Z</time>
      </trkpt>
      <trkpt lat="37.1717978248" lon="-7.41495119169">
        <ele>8.8</ele>
        <time>2011-03-21T08:55:27Z</time>
      </trkpt>
      <trkpt lat="37.1718090566" lon="-7.41501246338">
        <ele>9</ele>
        <time>2011-03-21T08:55:29Z</time>
      </trkpt>
      <trkpt lat="37.171823222" lon="-7.41507566291">
        <ele>9</ele>
        <time>2011-03-21T08:55:31Z</time>
      </trkpt>
      <trkpt lat="37.1718353757" lon="-7.41513743751">
        <ele>9.2</ele>
        <time>2011-03-21T08:55:33Z</time>
      </trkpt>
      <trkpt lat="37.1718457693" lon="-7.41520256487">
        <ele>9.2</ele>
        <time>2011-03-21T08:55:35Z</time>
      </trkpt>
      <trkpt lat="37.171857923" lon="-7.41526174109">
        <ele>9.4</ele>
        <time>2011-03-21T08:55:37Z</time>
      </trkpt>
      <trkpt lat="37.1718691548" lon="-7.41532175549">
        <ele>9.4</ele>
        <time>2011-03-21T08:55:39Z</time>
      </trkpt>
      <trkpt lat="37.1718802189" lon="-7.41537263363">
        <ele>9.4</ele>
        <time>2011-03-21T08:55:41Z</time>
      </trkpt>
      <trkpt lat="37.1719084659" lon="-7.41546860638">
        <ele>9.4</ele>
        <time>2011-03-21T08:55:44Z</time>
      </trkpt>
      <trkpt lat="37.1719219607" lon="-7.41553063244">
        <ele>9.8</ele>
        <time>2011-03-21T08:55:46Z</time>
      </trkpt>
      <trkpt lat="37.1719344498" lon="-7.41559098212">
        <ele>10.2</ele>
        <time>2011-03-21T08:55:48Z</time>
      </trkpt>
      <trkpt lat="37.1719476932" lon="-7.41565158326">
        <ele>10.6</ele>
        <time>2011-03-21T08:55:50Z</time>
      </trkpt>
      <trkpt lat="37.1719591764" lon="-7.41570966982">
        <ele>10.8</ele>
        <time>2011-03-21T08:55:52Z</time>
      </trkpt>
      <trkpt lat="37.1719746829" lon="-7.41577027096">
        <ele>11</ele>
        <time>2011-03-21T08:55:54Z</time>
      </trkpt>
      <trkpt lat="37.1719859146" lon="-7.415830453">
        <ele>11</ele>
        <time>2011-03-21T08:55:56Z</time>
      </trkpt>
      <trkpt lat="37.1719970626" lon="-7.41589080268">
        <ele>11.2</ele>
        <time>2011-03-21T08:55:58Z</time>
      </trkpt>
      <trkpt lat="37.1720140778" lon="-7.41594914071">
        <ele>11.2</ele>
        <time>2011-03-21T08:56:00Z</time>
      </trkpt>
      <trkpt lat="37.1720258963" lon="-7.41601016094">
        <ele>11.4</ele>
        <time>2011-03-21T08:56:02Z</time>
      </trkpt>
      <trkpt lat="37.1720399779" lon="-7.416072187">
        <ele>11.6</ele>
        <time>2011-03-21T08:56:04Z</time>
      </trkpt>
      <trkpt lat="37.1720585857" lon="-7.41612842955">
        <ele>12</ele>
        <time>2011-03-21T08:56:06Z</time>
      </trkpt>
      <trkpt lat="37.1720766906" lon="-7.4161877734">
        <ele>12.4</ele>
        <time>2011-03-21T08:56:08Z</time>
      </trkpt>
      <trkpt lat="37.1720942088" lon="-7.41624745253">
        <ele>12.6</ele>
        <time>2011-03-21T08:56:10Z</time>
      </trkpt>
      <trkpt lat="37.1721115593" lon="-7.41630570673">
        <ele>12.8</ele>
        <time>2011-03-21T08:56:12Z</time>
      </trkpt>
      <trkpt lat="37.172127904" lon="-7.41636622405">
        <ele>13</ele>
        <time>2011-03-21T08:56:14Z</time>
      </trkpt>
      <trkpt lat="37.1721416503" lon="-7.4164321896">
        <ele>13.2</ele>
        <time>2011-03-21T08:56:16Z</time>
      </trkpt>
      <trkpt lat="37.1721519601" lon="-7.41649781988">
        <ele>13.2</ele>
        <time>2011-03-21T08:56:18Z</time>
      </trkpt>
      <trkpt lat="37.1721607611" lon="-7.41655942685">
        <ele>13.6</ele>
        <time>2011-03-21T08:56:20Z</time>
      </trkpt>
      <trkpt lat="37.1721717414" lon="-7.41662111763">
        <ele>14</ele>
        <time>2011-03-21T08:56:22Z</time>
      </trkpt>
      <trkpt lat="37.1721827217" lon="-7.41668590972">
        <ele>14.4</ele>
        <time>2011-03-21T08:56:24Z</time>
      </trkpt>
      <trkpt lat="37.1721944563" lon="-7.41674701377">
        <ele>14.6</ele>
        <time>2011-03-21T08:56:26Z</time>
      </trkpt>
      <trkpt lat="37.1722056042" lon="-7.41681029711">
        <ele>14.8</ele>
        <time>2011-03-21T08:56:28Z</time>
      </trkpt>
      <trkpt lat="37.1722173389" lon="-7.416873329">
        <ele>15</ele>
        <time>2011-03-21T08:56:30Z</time>
      </trkpt>
      <trkpt lat="37.1722268105" lon="-7.41693116411">
        <ele>15.2</ele>
        <time>2011-03-21T08:56:32Z</time>
      </trkpt>
      <trkpt lat="37.172239048" lon="-7.41699218434">
        <ele>15.2</ele>
        <time>2011-03-21T08:56:34Z</time>
      </trkpt>
      <trkpt lat="37.1722524591" lon="-7.41705278548">
        <ele>15.4</ele>
        <time>2011-03-21T08:56:36Z</time>
      </trkpt>
      <trkpt lat="37.1722694743" lon="-7.4171115426">
        <ele>15.8</ele>
        <time>2011-03-21T08:56:38Z</time>
      </trkpt>
      <trkpt lat="37.1722824663" lon="-7.41716828806">
        <ele>16.2</ele>
        <time>2011-03-21T08:56:40Z</time>
      </trkpt>
      <trkpt lat="37.1722967993" lon="-7.41722662609">
        <ele>16.4</ele>
        <time>2011-03-21T08:56:42Z</time>
      </trkpt>
      <trkpt lat="37.1723128087" lon="-7.41728538321">
        <ele>16.8</ele>
        <time>2011-03-21T08:56:44Z</time>
      </trkpt>
      <trkpt lat="37.1723290696" lon="-7.41734472706">
        <ele>17</ele>
        <time>2011-03-21T08:56:46Z</time>
      </trkpt>
      <trkpt lat="37.1723462525" lon="-7.41740348418">
        <ele>17</ele>
        <time>2011-03-21T08:56:48Z</time>
      </trkpt>
      <trkpt lat="37.1723604179" lon="-7.41746400149">
        <ele>17.2</ele>
        <time>2011-03-21T08:56:50Z</time>
      </trkpt>
      <trkpt lat="37.1723690513" lon="-7.41752661429">
        <ele>17.4</ele>
        <time>2011-03-21T08:56:52Z</time>
      </trkpt>
      <trkpt lat="37.1723751701" lon="-7.41759081964">
        <ele>17.4</ele>
        <time>2011-03-21T08:56:54Z</time>
      </trkpt>
      <trkpt lat="37.1723806183" lon="-7.41765225897">
        <ele>17.4</ele>
        <time>2011-03-21T08:56:56Z</time>
      </trkpt>
      <trkpt lat="37.1723874915" lon="-7.41771487176">
        <ele>17.6</ele>
        <time>2011-03-21T08:56:58Z</time>
      </trkpt>
      <trkpt lat="37.172392353" lon="-7.41777480235">
        <ele>17.6</ele>
        <time>2011-03-21T08:57:00Z</time>
      </trkpt>
      <trkpt lat="37.1724001481" lon="-7.41783783423">
        <ele>17.6</ele>
        <time>2011-03-21T08:57:02Z</time>
      </trkpt>
      <trkpt lat="37.1724079433" lon="-7.41790245868">
        <ele>17.6</ele>
        <time>2011-03-21T08:57:04Z</time>
      </trkpt>
      <trkpt lat="37.1724169119" lon="-7.41796465238">
        <ele>18</ele>
        <time>2011-03-21T08:57:06Z</time>
      </trkpt>
      <trkpt lat="37.1724257968" lon="-7.41802399623">
        <ele>18.4</ele>
        <time>2011-03-21T08:57:08Z</time>
      </trkpt>
      <trkpt lat="37.172434011" lon="-7.41808183134">
        <ele>18.6</ele>
        <time>2011-03-21T08:57:10Z</time>
      </trkpt>
      <trkpt lat="37.1724432311" lon="-7.41814083992">
        <ele>18.8</ele>
        <time>2011-03-21T08:57:12Z</time>
      </trkpt>
      <trkpt lat="37.1724528703" lon="-7.41820370417">
        <ele>19</ele>
        <time>2011-03-21T08:57:14Z</time>
      </trkpt>
      <trkpt lat="37.1724605816" lon="-7.41823195117">
        <ele>19.2</ele>
        <time>2011-03-21T08:57:15Z</time>
      </trkpt>
      <trkpt lat="37.1724777645" lon="-7.41832851066">
        <ele>19.2</ele>
        <time>2011-03-21T08:57:18Z</time>
      </trkpt>
      <trkpt lat="37.1724921814" lon="-7.41839062054">
        <ele>19.4</ele>
        <time>2011-03-21T08:57:20Z</time>
      </trkpt>
      <trkpt lat="37.1724996413" lon="-7.41845289806">
        <ele>19.4</ele>
        <time>2011-03-21T08:57:22Z</time>
      </trkpt>
      <trkpt lat="37.1725069336" lon="-7.41851383447">
        <ele>19.6</ele>
        <time>2011-03-21T08:57:24Z</time>
      </trkpt>
      <trkpt lat="37.1725165727" lon="-7.41857586053">
        <ele>19.6</ele>
        <time>2011-03-21T08:57:26Z</time>
      </trkpt>
      <trkpt lat="37.1725281398" lon="-7.41863621021">
        <ele>19.6</ele>
        <time>2011-03-21T08:57:28Z</time>
      </trkpt>
      <trkpt lat="37.172538198" lon="-7.41869899064">
        <ele>19.6</ele>
        <time>2011-03-21T08:57:30Z</time>
      </trkpt>
      <trkpt lat="37.1725508547" lon="-7.41875850213">
        <ele>19.6</ele>
        <time>2011-03-21T08:57:32Z</time>
      </trkpt>
      <trkpt lat="37.172560913" lon="-7.41881692397">
        <ele>19.6</ele>
        <time>2011-03-21T08:57:34Z</time>
      </trkpt>
      <trkpt lat="37.1725723124" lon="-7.4188783633">
        <ele>19.8</ele>
        <time>2011-03-21T08:57:36Z</time>
      </trkpt>
      <trkpt lat="37.1725861425" lon="-7.41894491559">
        <ele>19.8</ele>
        <time>2011-03-21T08:57:38Z</time>
      </trkpt>
      <trkpt lat="37.1725965361" lon="-7.4190054329">
        <ele>19.8</ele>
        <time>2011-03-21T08:57:40Z</time>
      </trkpt>
      <trkpt lat="37.1726055885" lon="-7.41906569877">
        <ele>19.8</ele>
        <time>2011-03-21T08:57:42Z</time>
      </trkpt>
      <trkpt lat="37.1726174908" lon="-7.41912906593">
        <ele>19.8</ele>
        <time>2011-03-21T08:57:44Z</time>
      </trkpt>
      <trkpt lat="37.1726310695" lon="-7.41919343892">
        <ele>19.6</ele>
        <time>2011-03-21T08:57:46Z</time>
      </trkpt>
      <trkpt lat="37.1726426365" lon="-7.41925722518">
        <ele>19.2</ele>
        <time>2011-03-21T08:57:48Z</time>
      </trkpt>
      <trkpt lat="37.1726506831" lon="-7.41932277164">
        <ele>19</ele>
        <time>2011-03-21T08:57:50Z</time>
      </trkpt>
      <trkpt lat="37.1726598194" lon="-7.41937968474">
        <ele>18.8</ele>
        <time>2011-03-21T08:57:52Z</time>
      </trkpt>
      <trkpt lat="37.1726676984" lon="-7.41944104025">
        <ele>18.6</ele>
        <time>2011-03-21T08:57:54Z</time>
      </trkpt>
      <trkpt lat="37.1726758288" lon="-7.41950256339">
        <ele>18.4</ele>
        <time>2011-03-21T08:57:56Z</time>
      </trkpt>
      <trkpt lat="37.1726851327" lon="-7.41956802603">
        <ele>18.2</ele>
        <time>2011-03-21T08:57:58Z</time>
      </trkpt>
      <trkpt lat="37.172687815" lon="-7.41960180509">
        <ele>18.2</ele>
        <time>2011-03-21T08:57:59Z</time>
      </trkpt>
      <trkpt lat="37.1726920897" lon="-7.41963130938">
        <ele>18.2</ele>
        <time>2011-03-21T08:58:00Z</time>
      </trkpt>
      <trkpt lat="37.172699382" lon="-7.41969375453">
        <ele>18</ele>
        <time>2011-03-21T08:58:02Z</time>
      </trkpt>
      <trkpt lat="37.1727083506" lon="-7.41975242783">
        <ele>18</ele>
        <time>2011-03-21T08:58:04Z</time>
      </trkpt>
      <trkpt lat="37.1727196662" lon="-7.41981378334">
        <ele>18</ele>
        <time>2011-03-21T08:58:06Z</time>
      </trkpt>
      <trkpt lat="37.1727298921" lon="-7.41987597704">
        <ele>18</ele>
        <time>2011-03-21T08:58:08Z</time>
      </trkpt>
      <trkpt lat="37.1727395313" lon="-7.41993967948">
        <ele>17.8</ele>
        <time>2011-03-21T08:58:10Z</time>
      </trkpt>
      <trkpt lat="37.1727500086" lon="-7.41999986152">
        <ele>17.8</ele>
        <time>2011-03-21T08:58:12Z</time>
      </trkpt>
      <trkpt lat="37.1727570494" lon="-7.42006289341">
        <ele>17.8</ele>
        <time>2011-03-21T08:58:14Z</time>
      </trkpt>
      <trkpt lat="37.1727643417" lon="-7.42012626057">
        <ele>17.8</ele>
        <time>2011-03-21T08:58:16Z</time>
      </trkpt>
      <trkpt lat="37.1727751543" lon="-7.42018761608">
        <ele>17.8</ele>
        <time>2011-03-21T08:58:18Z</time>
      </trkpt>
      <trkpt lat="37.1727854641" lon="-7.42024779812">
        <ele>17.4</ele>
        <time>2011-03-21T08:58:20Z</time>
      </trkpt>
      <trkpt lat="37.1727970311" lon="-7.42031057855">
        <ele>17</ele>
        <time>2011-03-21T08:58:22Z</time>
      </trkpt>
      <trkpt lat="37.1728103583" lon="-7.42037243698">
        <ele>16.8</ele>
        <time>2011-03-21T08:58:24Z</time>
      </trkpt>
      <trkpt lat="37.1728237694" lon="-7.42043069118">
        <ele>16.6</ele>
        <time>2011-03-21T08:58:26Z</time>
      </trkpt>
      <trkpt lat="37.1728396112" lon="-7.42049171141">
        <ele>16.4</ele>
        <time>2011-03-21T08:58:28Z</time>
      </trkpt>
      <trkpt lat="37.1728518487" lon="-7.42056371193">
        <ele>16.4</ele>
        <time>2011-03-21T08:58:30Z</time>
      </trkpt>
      <trkpt lat="37.1728667685" lon="-7.42062833638">
        <ele>16.2</ele>
        <time>2011-03-21T08:58:32Z</time>
      </trkpt>
      <trkpt lat="37.1728817721" lon="-7.42069027862">
        <ele>16.2</ele>
        <time>2011-03-21T08:58:34Z</time>
      </trkpt>
      <trkpt lat="37.1728942611" lon="-7.4207541487">
        <ele>16</ele>
        <time>2011-03-21T08:58:36Z</time>
      </trkpt>
      <trkpt lat="37.1729075046" lon="-7.42081952752">
        <ele>16</ele>
        <time>2011-03-21T08:58:38Z</time>
      </trkpt>
      <trkpt lat="37.1729206641" lon="-7.42088105067">
        <ele>16</ele>
        <time>2011-03-21T08:58:40Z</time>
      </trkpt>
      <trkpt lat="37.1729458937" lon="-7.42099345195">
        <ele>15.8</ele>
        <time>2011-03-21T08:58:44Z</time>
      </trkpt>
      <trkpt lat="37.1729534374" lon="-7.42105732202">
        <ele>15.8</ele>
        <time>2011-03-21T08:58:46Z</time>
      </trkpt>
      <trkpt lat="37.1729677704" lon="-7.42111507332">
        <ele>15.4</ele>
        <time>2011-03-21T08:58:48Z</time>
      </trkpt>
      <trkpt lat="37.1729831931" lon="-7.42117969776">
        <ele>15</ele>
        <time>2011-03-21T08:58:50Z</time>
      </trkpt>
      <trkpt lat="37.1730070815" lon="-7.42127198248">
        <ele>14.8</ele>
        <time>2011-03-21T08:58:53Z</time>
      </trkpt>
      <trkpt lat="37.1730242644" lon="-7.42133710985">
        <ele>14.6</ele>
        <time>2011-03-21T08:58:55Z</time>
      </trkpt>
      <trkpt lat="37.1730380946" lon="-7.42139393913">
        <ele>14.4</ele>
        <time>2011-03-21T08:58:57Z</time>
      </trkpt>
      <trkpt lat="37.1730554451" lon="-7.42144867293">
        <ele>14.2</ele>
        <time>2011-03-21T08:58:59Z</time>
      </trkpt>
      <trkpt lat="37.1730725442" lon="-7.4215067595">
        <ele>14.2</ele>
        <time>2011-03-21T08:59:01Z</time>
      </trkpt>
      <trkpt lat="37.1730912358" lon="-7.42156467843">
        <ele>14</ele>
        <time>2011-03-21T08:59:03Z</time>
      </trkpt>
      <trkpt lat="37.1731080834" lon="-7.42161949606">
        <ele>14</ele>
        <time>2011-03-21T08:59:05Z</time>
      </trkpt>
      <trkpt lat="37.1731266074" lon="-7.42167297258">
        <ele>14</ele>
        <time>2011-03-21T08:59:07Z</time>
      </trkpt>
      <trkpt lat="37.1731420301" lon="-7.4217268682">
        <ele>13.8</ele>
        <time>2011-03-21T08:59:09Z</time>
      </trkpt>
      <trkpt lat="37.1731587101" lon="-7.42180917845">
        <ele>13.8</ele>
        <time>2011-03-21T08:59:12Z</time>
      </trkpt>
      <trkpt lat="37.1731682655" lon="-7.42187346763">
        <ele>13.8</ele>
        <time>2011-03-21T08:59:14Z</time>
      </trkpt>
      <trkpt lat="37.1731778208" lon="-7.42193867881">
        <ele>13.8</ele>
        <time>2011-03-21T08:59:16Z</time>
      </trkpt>
      <trkpt lat="37.1731875438" lon="-7.42199986668">
        <ele>13.8</ele>
        <time>2011-03-21T08:59:18Z</time>
      </trkpt>
      <trkpt lat="37.1732025474" lon="-7.42206021636">
        <ele>13.8</ele>
        <time>2011-03-21T08:59:20Z</time>
      </trkpt>
      <trkpt lat="37.1732190598" lon="-7.42212090132">
        <ele>13.8</ele>
        <time>2011-03-21T08:59:22Z</time>
      </trkpt>
      <trkpt lat="37.1732356559" lon="-7.42217923934">
        <ele>13.8</ele>
        <time>2011-03-21T08:59:24Z</time>
      </trkpt>
      <trkpt lat="37.1732541799" lon="-7.42223967284">
        <ele>13.8</ele>
        <time>2011-03-21T08:59:26Z</time>
      </trkpt>
      <trkpt lat="37.1732729554" lon="-7.42229666976">
        <ele>13.8</ele>
        <time>2011-03-21T08:59:28Z</time>
      </trkpt>
      <trkpt lat="37.1732960056" lon="-7.42235651652">
        <ele>13.6</ele>
        <time>2011-03-21T08:59:30Z</time>
      </trkpt>
      <trkpt lat="37.1733160384" lon="-7.42241192088">
        <ele>13.6</ele>
        <time>2011-03-21T08:59:32Z</time>
      </trkpt>
      <trkpt lat="37.173338418" lon="-7.42247168383">
        <ele>13.6</ele>
        <time>2011-03-21T08:59:34Z</time>
      </trkpt>
      <trkpt lat="37.1733587022" lon="-7.42252742347">
        <ele>13.6</ele>
        <time>2011-03-21T08:59:36Z</time>
      </trkpt>
      <trkpt lat="37.1733813334" lon="-7.4225831631">
        <ele>13.6</ele>
        <time>2011-03-21T08:59:38Z</time>
      </trkpt>
      <trkpt lat="37.1734030425" lon="-7.42264200404">
        <ele>13.6</ele>
        <time>2011-03-21T08:59:40Z</time>
      </trkpt>
      <trkpt lat="37.1734225723" lon="-7.4226987495">
        <ele>13.6</ele>
        <time>2011-03-21T08:59:42Z</time>
      </trkpt>
      <trkpt lat="37.1734420183" lon="-7.4227574228">
        <ele>13.6</ele>
        <time>2011-03-21T08:59:44Z</time>
      </trkpt>
      <trkpt lat="37.1734706844" lon="-7.42284350491">
        <ele>13.6</ele>
        <time>2011-03-21T08:59:47Z</time>
      </trkpt>
      <trkpt lat="37.173489879" lon="-7.4229030164">
        <ele>13.6</ele>
        <time>2011-03-21T08:59:49Z</time>
      </trkpt>
      <trkpt lat="37.1735089897" lon="-7.42295959423">
        <ele>13.6</ele>
        <time>2011-03-21T08:59:51Z</time>
      </trkpt>
      <trkpt lat="37.1735277652" lon="-7.42301877044">
        <ele>13.6</ele>
        <time>2011-03-21T08:59:53Z</time>
      </trkpt>
      <trkpt lat="37.1735446128" lon="-7.42307752756">
        <ele>13.6</ele>
        <time>2011-03-21T08:59:55Z</time>
      </trkpt>
      <trkpt lat="37.1735602869" lon="-7.42313729051">
        <ele>13.6</ele>
        <time>2011-03-21T08:59:57Z</time>
      </trkpt>
      <trkpt lat="37.1735763802" lon="-7.42319822692">
        <ele>13.6</ele>
        <time>2011-03-21T08:59:59Z</time>
      </trkpt>
      <trkpt lat="37.1735938145" lon="-7.42325480475">
        <ele>13.6</ele>
        <time>2011-03-21T09:00:01Z</time>
      </trkpt>
      <trkpt lat="37.1736106621" lon="-7.42331146639">
        <ele>13.6</ele>
        <time>2011-03-21T09:00:03Z</time>
      </trkpt>
      <trkpt lat="37.1736240732" lon="-7.4233710617">
        <ele>13.6</ele>
        <time>2011-03-21T09:00:05Z</time>
      </trkpt>
      <trkpt lat="37.1736353049" lon="-7.42343367449">
        <ele>13.6</ele>
        <time>2011-03-21T09:00:07Z</time>
      </trkpt>
      <trkpt lat="37.1736493865" lon="-7.42349653874">
        <ele>13.6</ele>
        <time>2011-03-21T09:00:09Z</time>
      </trkpt>
      <trkpt lat="37.1736645578" lon="-7.42355957063">
        <ele>13.6</ele>
        <time>2011-03-21T09:00:11Z</time>
      </trkpt>
      <trkpt lat="37.1736822436" lon="-7.42362243488">
        <ele>13.6</ele>
        <time>2011-03-21T09:00:13Z</time>
      </trkpt>
      <trkpt lat="37.1737011028" lon="-7.42368127582">
        <ele>13.6</ele>
        <time>2011-03-21T09:00:15Z</time>
      </trkpt>
      <trkpt lat="37.1737182857" lon="-7.42374464298">
        <ele>13.6</ele>
        <time>2011-03-21T09:00:17Z</time>
      </trkpt>
      <trkpt lat="37.1737330379" lon="-7.42380817779">
        <ele>13.6</ele>
        <time>2011-03-21T09:00:19Z</time>
      </trkpt>
      <trkpt lat="37.1737469518" lon="-7.42387473007">
        <ele>13.6</ele>
        <time>2011-03-21T09:00:21Z</time>
      </trkpt>
      <trkpt lat="37.173759357" lon="-7.42393776196">
        <ele>13.6</ele>
        <time>2011-03-21T09:00:23Z</time>
      </trkpt>
      <trkpt lat="37.1737765399" lon="-7.42399827928">
        <ele>13.6</ele>
        <time>2011-03-21T09:00:25Z</time>
      </trkpt>
      <trkpt lat="37.1737966565" lon="-7.42405167198">
        <ele>13.6</ele>
        <time>2011-03-21T09:00:27Z</time>
      </trkpt>
      <trkpt lat="37.1738109896" lon="-7.42411336276">
        <ele>13.6</ele>
        <time>2011-03-21T09:00:29Z</time>
      </trkpt>
      <trkpt lat="37.1738261608" lon="-7.42417496973">
        <ele>13.6</ele>
        <time>2011-03-21T09:00:31Z</time>
      </trkpt>
      <trkpt lat="37.1738423379" lon="-7.42423716343">
        <ele>13.6</ele>
        <time>2011-03-21T09:00:33Z</time>
      </trkpt>
      <trkpt lat="37.1738740214" lon="-7.42435945535">
        <ele>13.6</ele>
        <time>2011-03-21T09:00:37Z</time>
      </trkpt>
      <trkpt lat="37.1738891089" lon="-7.42441846392">
        <ele>13.6</ele>
        <time>2011-03-21T09:00:39Z</time>
      </trkpt>
      <trkpt lat="37.1739055374" lon="-7.42448107672">
        <ele>13.6</ele>
        <time>2011-03-21T09:00:41Z</time>
      </trkpt>
      <trkpt lat="37.1739223012" lon="-7.4245458688">
        <ele>13.6</ele>
        <time>2011-03-21T09:00:43Z</time>
      </trkpt>
      <trkpt lat="37.1739384783" lon="-7.42460286572">
        <ele>13.6</ele>
        <time>2011-03-21T09:00:45Z</time>
      </trkpt>
      <trkpt lat="37.1739542362" lon="-7.42465986264">
        <ele>13.6</ele>
        <time>2011-03-21T09:00:47Z</time>
      </trkpt>
      <trkpt lat="37.1739673958" lon="-7.42472121815">
        <ele>13.6</ele>
        <time>2011-03-21T09:00:49Z</time>
      </trkpt>
      <trkpt lat="37.1739769512" lon="-7.42478777044">
        <ele>13.6</ele>
        <time>2011-03-21T09:00:51Z</time>
      </trkpt>
      <trkpt lat="37.1739912004" lon="-7.42484786866">
        <ele>13.6</ele>
        <time>2011-03-21T09:00:53Z</time>
      </trkpt>
      <trkpt lat="37.1740041923" lon="-7.42490612287">
        <ele>13.6</ele>
        <time>2011-03-21T09:00:55Z</time>
      </trkpt>
      <trkpt lat="37.1740153403" lon="-7.42496798129">
        <ele>13.6</ele>
        <time>2011-03-21T09:00:57Z</time>
      </trkpt>
      <trkpt lat="37.1740348701" lon="-7.42505766762">
        <ele>13.6</ele>
        <time>2011-03-21T09:01:00Z</time>
      </trkpt>
      <trkpt lat="37.1740459342" lon="-7.42512103478">
        <ele>13.6</ele>
        <time>2011-03-21T09:01:02Z</time>
      </trkpt>
      <trkpt lat="37.1740639553" lon="-7.42521164312">
        <ele>13.6</ele>
        <time>2011-03-21T09:01:05Z</time>
      </trkpt>
      <trkpt lat="37.1740723372" lon="-7.42527484265">
        <ele>13.6</ele>
        <time>2011-03-21T09:01:07Z</time>
      </trkpt>
      <trkpt lat="37.174083066" lon="-7.42533619816">
        <ele>13.6</ele>
        <time>2011-03-21T09:01:09Z</time>
      </trkpt>
      <trkpt lat="37.174092789" lon="-7.42539746984">
        <ele>13.6</ele>
        <time>2011-03-21T09:01:11Z</time>
      </trkpt>
      <trkpt lat="37.1741053619" lon="-7.4254568137">
        <ele>13.6</ele>
        <time>2011-03-21T09:01:13Z</time>
      </trkpt>
      <trkpt lat="37.1741181862" lon="-7.42551531936">
        <ele>13.6</ele>
        <time>2011-03-21T09:01:15Z</time>
      </trkpt>
      <trkpt lat="37.1741278254" lon="-7.42558019526">
        <ele>13.6</ele>
        <time>2011-03-21T09:01:17Z</time>
      </trkpt>
      <trkpt lat="37.1741341118" lon="-7.42564440062">
        <ele>13.6</ele>
        <time>2011-03-21T09:01:19Z</time>
      </trkpt>
      <trkpt lat="37.1741458465" lon="-7.42570994708">
        <ele>13.6</ele>
        <time>2011-03-21T09:01:21Z</time>
      </trkpt>
      <trkpt lat="37.1741626941" lon="-7.42577775665">
        <ele>13.6</ele>
        <time>2011-03-21T09:01:23Z</time>
      </trkpt>
      <trkpt lat="37.1741793741" lon="-7.42584799697">
        <ele>13.6</ele>
        <time>2011-03-21T09:01:25Z</time>
      </trkpt>
      <trkpt lat="37.174192366" lon="-7.4259142978">
        <ele>13.6</ele>
        <time>2011-03-21T09:01:27Z</time>
      </trkpt>
      <trkpt lat="37.1742068667" lon="-7.4259760724">
        <ele>13.6</ele>
        <time>2011-03-21T09:01:29Z</time>
      </trkpt>
      <trkpt lat="37.1742180984" lon="-7.42603583535">
        <ele>13.6</ele>
        <time>2011-03-21T09:01:31Z</time>
      </trkpt>
      <trkpt lat="37.1742239658" lon="-7.42609844814">
        <ele>13.6</ele>
        <time>2011-03-21T09:01:33Z</time>
      </trkpt>
      <trkpt lat="37.1742341079" lon="-7.42616005511">
        <ele>13.6</ele>
        <time>2011-03-21T09:01:35Z</time>
      </trkpt>
      <trkpt lat="37.1742422383" lon="-7.42621923132">
        <ele>13.6</ele>
        <time>2011-03-21T09:01:37Z</time>
      </trkpt>
      <trkpt lat="37.1742557332" lon="-7.42628259848">
        <ele>13.6</ele>
        <time>2011-03-21T09:01:39Z</time>
      </trkpt>
      <trkpt lat="37.1742641151" lon="-7.42634638474">
        <ele>13.6</ele>
        <time>2011-03-21T09:01:41Z</time>
      </trkpt>
      <trkpt lat="37.174271575" lon="-7.42640204056">
        <ele>13.6</ele>
        <time>2011-03-21T09:01:43Z</time>
      </trkpt>
      <trkpt lat="37.1742770232" lon="-7.42646289315">
        <ele>13.6</ele>
        <time>2011-03-21T09:01:45Z</time>
      </trkpt>
      <trkpt lat="37.1742807112" lon="-7.42652802052">
        <ele>13.6</ele>
        <time>2011-03-21T09:01:47Z</time>
      </trkpt>
      <trkpt lat="37.1742896799" lon="-7.42659189059">
        <ele>13.6</ele>
        <time>2011-03-21T09:01:49Z</time>
      </trkpt>
      <trkpt lat="37.1743047673" lon="-7.4266752905">
        <ele>13.6</ele>
        <time>2011-03-21T09:01:52Z</time>
      </trkpt>
      <trkpt lat="37.174315077" lon="-7.42672977285">
        <ele>13.6</ele>
        <time>2011-03-21T09:01:54Z</time>
      </trkpt>
      <trkpt lat="37.1743216987" lon="-7.42678685359">
        <ele>13.6</ele>
        <time>2011-03-21T09:01:56Z</time>
      </trkpt>
      <trkpt lat="37.1743231236" lon="-7.4268429285">
        <ele>13.6</ele>
        <time>2011-03-21T09:01:58Z</time>
      </trkpt>
      <trkpt lat="37.1743282366" lon="-7.42690135034">
        <ele>13.6</ele>
        <time>2011-03-21T09:02:01Z</time>
      </trkpt>
      <trkpt lat="37.1743420667" lon="-7.42695826344">
        <ele>13.6</ele>
        <time>2011-03-21T09:02:04Z</time>
      </trkpt>
      <trkpt lat="37.1743591658" lon="-7.4270392326">
        <ele>13.6</ele>
        <time>2011-03-21T09:02:07Z</time>
      </trkpt>
      <trkpt lat="37.1743719063" lon="-7.4270979059">
        <ele>13.6</ele>
        <time>2011-03-21T09:02:09Z</time>
      </trkpt>
      <trkpt lat="37.1743829704" lon="-7.42715540573">
        <ele>13.6</ele>
        <time>2011-03-21T09:02:11Z</time>
      </trkpt>
      <trkpt lat="37.1743902627" lon="-7.42720980426">
        <ele>13.6</ele>
        <time>2011-03-21T09:02:13Z</time>
      </trkpt>
      <trkpt lat="37.174397974" lon="-7.4272699863">
        <ele>13.6</ele>
        <time>2011-03-21T09:02:15Z</time>
      </trkpt>
      <trkpt lat="37.1744102116" lon="-7.42732857579">
        <ele>13.6</ele>
        <time>2011-03-21T09:02:17Z</time>
      </trkpt>
      <trkpt lat="37.1744224492" lon="-7.42738649471">
        <ele>13.6</ele>
        <time>2011-03-21T09:02:19Z</time>
      </trkpt>
      <trkpt lat="37.1744332618" lon="-7.42744550329">
        <ele>13.6</ele>
        <time>2011-03-21T09:02:21Z</time>
      </trkpt>
      <trkpt lat="37.1744425657" lon="-7.42750392513">
        <ele>13.8</ele>
        <time>2011-03-21T09:02:23Z</time>
      </trkpt>
      <trkpt lat="37.1744464214" lon="-7.42756544828">
        <ele>14.2</ele>
        <time>2011-03-21T09:02:25Z</time>
      </trkpt>
      <trkpt lat="37.1744610897" lon="-7.42762722288">
        <ele>14.6</ele>
        <time>2011-03-21T09:02:27Z</time>
      </trkpt>
      <trkpt lat="37.1744750037" lon="-7.42768782402">
        <ele>14.8</ele>
        <time>2011-03-21T09:02:29Z</time>
      </trkpt>
      <trkpt lat="37.1744894205" lon="-7.42777566633">
        <ele>15</ele>
        <time>2011-03-21T09:02:32Z</time>
      </trkpt>
      <trkpt lat="37.1745014905" lon="-7.42783618365">
        <ele>15.2</ele>
        <time>2011-03-21T09:02:34Z</time>
      </trkpt>
      <trkpt lat="37.1745108782" lon="-7.4278959466">
        <ele>15.2</ele>
        <time>2011-03-21T09:02:36Z</time>
      </trkpt>
      <trkpt lat="37.1745262171" lon="-7.42795931376">
        <ele>15.4</ele>
        <time>2011-03-21T09:02:38Z</time>
      </trkpt>
      <trkpt lat="37.1745403825" lon="-7.42802100454">
        <ele>15.4</ele>
        <time>2011-03-21T09:02:40Z</time>
      </trkpt>
      <trkpt lat="37.1745591579" lon="-7.42810918213">
        <ele>15.4</ele>
        <time>2011-03-21T09:02:43Z</time>
      </trkpt>
      <trkpt lat="37.1745676237" lon="-7.42817439331">
        <ele>15.6</ele>
        <time>2011-03-21T09:02:45Z</time>
      </trkpt>
      <trkpt lat="37.1745814538" lon="-7.42823449154">
        <ele>15.6</ele>
        <time>2011-03-21T09:02:47Z</time>
      </trkpt>
      <trkpt lat="37.1745928532" lon="-7.42829542795">
        <ele>15.6</ele>
        <time>2011-03-21T09:02:49Z</time>
      </trkpt>
      <trkpt lat="37.1746033306" lon="-7.42835577763">
        <ele>15.6</ele>
        <time>2011-03-21T09:02:51Z</time>
      </trkpt>
      <trkpt lat="37.1746140594" lon="-7.42841478621">
        <ele>15.6</ele>
        <time>2011-03-21T09:02:53Z</time>
      </trkpt>
      <trkpt lat="37.1746235309" lon="-7.42847245368">
        <ele>15.6</ele>
        <time>2011-03-21T09:02:55Z</time>
      </trkpt>
      <trkpt lat="37.1746371096" lon="-7.42853104316">
        <ele>15.6</ele>
        <time>2011-03-21T09:02:57Z</time>
      </trkpt>
      <trkpt lat="37.1746516941" lon="-7.42858980028">
        <ele>15.6</ele>
        <time>2011-03-21T09:02:59Z</time>
      </trkpt>
      <trkpt lat="37.1746663624" lon="-7.42864872503">
        <ele>15.6</ele>
        <time>2011-03-21T09:03:01Z</time>
      </trkpt>
      <trkpt lat="37.1746793544" lon="-7.42870924235">
        <ele>15.6</ele>
        <time>2011-03-21T09:03:03Z</time>
      </trkpt>
      <trkpt lat="37.174689245" lon="-7.42876841857">
        <ele>15.6</ele>
        <time>2011-03-21T09:03:05Z</time>
      </trkpt>
      <trkpt lat="37.1746988842" lon="-7.42882834915">
        <ele>15.6</ele>
        <time>2011-03-21T09:03:07Z</time>
      </trkpt>
      <trkpt lat="37.1747127982" lon="-7.42888651954">
        <ele>15.6</ele>
        <time>2011-03-21T09:03:09Z</time>
      </trkpt>
      <trkpt lat="37.1747246167" lon="-7.42894728831">
        <ele>15.6</ele>
        <time>2011-03-21T09:03:11Z</time>
      </trkpt>
      <trkpt lat="37.1747406261" lon="-7.42900914674">
        <ele>15.6</ele>
        <time>2011-03-21T09:03:13Z</time>
      </trkpt>
      <trkpt lat="37.1747489242" lon="-7.42907108898">
        <ele>15.6</ele>
        <time>2011-03-21T09:03:15Z</time>
      </trkpt>
      <trkpt lat="37.1747619999" lon="-7.42915515943">
        <ele>15.6</ele>
        <time>2011-03-21T09:03:18Z</time>
      </trkpt>
      <trkpt lat="37.1747754948" lon="-7.42921475474">
        <ele>15.6</ele>
        <time>2011-03-21T09:03:20Z</time>
      </trkpt>
      <trkpt lat="37.1747917557" lon="-7.42930242942">
        <ele>15.6</ele>
        <time>2011-03-21T09:03:23Z</time>
      </trkpt>
      <trkpt lat="37.1748075975" lon="-7.4293610189">
        <ele>15.6</ele>
        <time>2011-03-21T09:03:25Z</time>
      </trkpt>
      <trkpt lat="37.17482126" lon="-7.42942002747">
        <ele>15.6</ele>
        <time>2011-03-21T09:03:27Z</time>
      </trkpt>
      <trkpt lat="37.1748367665" lon="-7.42948046097">
        <ele>15.6</ele>
        <time>2011-03-21T09:03:29Z</time>
      </trkpt>
      <trkpt lat="37.1748544523" lon="-7.42954131357">
        <ele>15.6</ele>
        <time>2011-03-21T09:03:31Z</time>
      </trkpt>
      <trkpt lat="37.174867109" lon="-7.42960074124">
        <ele>15.6</ele>
        <time>2011-03-21T09:03:33Z</time>
      </trkpt>
      <trkpt lat="37.1748765805" lon="-7.42965991745">
        <ele>15.6</ele>
        <time>2011-03-21T09:03:35Z</time>
      </trkpt>
      <trkpt lat="37.1748967809" lon="-7.42973921023">
        <ele>15.6</ele>
        <time>2011-03-21T09:03:38Z</time>
      </trkpt>
      <trkpt lat="37.1749135447" lon="-7.42980693598">
        <ele>15.6</ele>
        <time>2011-03-21T09:03:40Z</time>
      </trkpt>
      <trkpt lat="37.1749226809" lon="-7.4298674533">
        <ele>15.6</ele>
        <time>2011-03-21T09:03:42Z</time>
      </trkpt>
      <trkpt lat="37.1749324878" lon="-7.4299274677">
        <ele>15.6</ele>
        <time>2011-03-21T09:03:44Z</time>
      </trkpt>
      <trkpt lat="37.1749413726" lon="-7.42999267888">
        <ele>15.6</ele>
        <time>2011-03-21T09:03:46Z</time>
      </trkpt>
      <trkpt lat="37.1749505089" lon="-7.43005353148">
        <ele>15.6</ele>
        <time>2011-03-21T09:03:48Z</time>
      </trkpt>
      <trkpt lat="37.1749644228" lon="-7.43012050286">
        <ele>15.6</ele>
        <time>2011-03-21T09:03:50Z</time>
      </trkpt>
      <trkpt lat="37.1749702063" lon="-7.43018345092">
        <ele>15.6</ele>
        <time>2011-03-21T09:03:52Z</time>
      </trkpt>
      <trkpt lat="37.1749753193" lon="-7.43024782392">
        <ele>15.6</ele>
        <time>2011-03-21T09:03:54Z</time>
      </trkpt>
      <trkpt lat="37.1749805999" lon="-7.43031152636">
        <ele>15.6</ele>
        <time>2011-03-21T09:03:56Z</time>
      </trkpt>
      <trkpt lat="37.1749867187" lon="-7.43037506116">
        <ele>15.6</ele>
        <time>2011-03-21T09:03:58Z</time>
      </trkpt>
      <trkpt lat="37.1749956035" lon="-7.43043817687">
        <ele>15.6</ele>
        <time>2011-03-21T09:04:00Z</time>
      </trkpt>
      <trkpt lat="37.1749982019" lon="-7.43047170447">
        <ele>15.6</ele>
        <time>2011-03-21T09:04:01Z</time>
      </trkpt>
      <trkpt lat="37.175000465" lon="-7.43050246604">
        <ele>15.6</ele>
        <time>2011-03-21T09:04:02Z</time>
      </trkpt>
      <trkpt lat="37.1750081763" lon="-7.43056432446">
        <ele>15.6</ele>
        <time>2011-03-21T09:04:04Z</time>
      </trkpt>
      <trkpt lat="37.1750177317" lon="-7.43062601525">
        <ele>15.6</ele>
        <time>2011-03-21T09:04:06Z</time>
      </trkpt>
      <trkpt lat="37.1750235152" lon="-7.43068946623">
        <ele>15.6</ele>
        <time>2011-03-21T09:04:08Z</time>
      </trkpt>
      <trkpt lat="37.1750297178" lon="-7.43075258194">
        <ele>16</ele>
        <time>2011-03-21T09:04:10Z</time>
      </trkpt>
      <trkpt lat="37.1750382674" lon="-7.4308110876">
        <ele>16.4</ele>
        <time>2011-03-21T09:04:12Z</time>
      </trkpt>
      <trkpt lat="37.1750437156" lon="-7.43087068291">
        <ele>16.6</ele>
        <time>2011-03-21T09:04:14Z</time>
      </trkpt>
      <trkpt lat="37.1750512593" lon="-7.43092876947">
        <ele>16.8</ele>
        <time>2011-03-21T09:04:16Z</time>
      </trkpt>
      <trkpt lat="37.1750622396" lon="-7.43098828096">
        <ele>17</ele>
        <time>2011-03-21T09:04:18Z</time>
      </trkpt>
      <trkpt lat="37.1750729684" lon="-7.43105039084">
        <ele>17.2</ele>
        <time>2011-03-21T09:04:20Z</time>
      </trkpt>
      <trkpt lat="37.175081015" lon="-7.43111199781">
        <ele>17.2</ele>
        <time>2011-03-21T09:04:22Z</time>
      </trkpt>
      <trkpt lat="37.1750917439" lon="-7.43117586788">
        <ele>17.4</ele>
        <time>2011-03-21T09:04:24Z</time>
      </trkpt>
      <trkpt lat="37.175104652" lon="-7.43123613375">
        <ele>17.4</ele>
        <time>2011-03-21T09:04:26Z</time>
      </trkpt>
      <trkpt lat="37.1751146265" lon="-7.43129807599">
        <ele>17.4</ele>
        <time>2011-03-21T09:04:28Z</time>
      </trkpt>
      <trkpt lat="37.175122254" lon="-7.43135985059">
        <ele>17.4</ele>
        <time>2011-03-21T09:04:30Z</time>
      </trkpt>
      <trkpt lat="37.1751307197" lon="-7.43141651223">
        <ele>17.6</ele>
        <time>2011-03-21T09:04:32Z</time>
      </trkpt>
      <trkpt lat="37.1751425382" lon="-7.4314777001">
        <ele>17.6</ele>
        <time>2011-03-21T09:04:34Z</time>
      </trkpt>
      <trkpt lat="37.1751530156" lon="-7.43153704396">
        <ele>17.6</ele>
        <time>2011-03-21T09:04:36Z</time>
      </trkpt>
      <trkpt lat="37.1751615651" lon="-7.43159730982">
        <ele>17.6</ele>
        <time>2011-03-21T09:04:38Z</time>
      </trkpt>
      <trkpt lat="37.1751698632" lon="-7.43165782714">
        <ele>17.6</ele>
        <time>2011-03-21T09:04:40Z</time>
      </trkpt>
      <trkpt lat="37.1751813464" lon="-7.43172052375">
        <ele>17.6</ele>
        <time>2011-03-21T09:04:42Z</time>
      </trkpt>
      <trkpt lat="37.17519635" lon="-7.4317829689">
        <ele>17.6</ele>
        <time>2011-03-21T09:04:44Z</time>
      </trkpt>
      <trkpt lat="37.1752084199" lon="-7.43184105547">
        <ele>17.6</ele>
        <time>2011-03-21T09:04:46Z</time>
      </trkpt>
      <trkpt lat="37.1752247646" lon="-7.43192805959">
        <ele>17.6</ele>
        <time>2011-03-21T09:04:49Z</time>
      </trkpt>
      <trkpt lat="37.1752432886" lon="-7.43201565045">
        <ele>17.6</ele>
        <time>2011-03-21T09:04:52Z</time>
      </trkpt>
      <trkpt lat="37.1752531793" lon="-7.43207549721">
        <ele>17.6</ele>
        <time>2011-03-21T09:04:54Z</time>
      </trkpt>
      <trkpt lat="37.1752629861" lon="-7.43216325571">
        <ele>17.6</ele>
        <time>2011-03-21T09:04:57Z</time>
      </trkpt>
      <trkpt lat="37.1752717871" lon="-7.43222268338">
        <ele>17.6</ele>
        <time>2011-03-21T09:04:59Z</time>
      </trkpt>
      <trkpt lat="37.1752862878" lon="-7.43231077715">
        <ele>17.6</ele>
        <time>2011-03-21T09:05:02Z</time>
      </trkpt>
      <trkpt lat="37.1753038898" lon="-7.43239694308">
        <ele>17.6</ele>
        <time>2011-03-21T09:05:05Z</time>
      </trkpt>
      <trkpt lat="37.1753146186" lon="-7.43245469437">
        <ele>17.6</ele>
        <time>2011-03-21T09:05:07Z</time>
      </trkpt>
      <trkpt lat="37.1753252636" lon="-7.43251202656">
        <ele>17.6</ele>
        <time>2011-03-21T09:05:09Z</time>
      </trkpt>
      <trkpt lat="37.1753410216" lon="-7.43260079089">
        <ele>17.6</ele>
        <time>2011-03-21T09:05:12Z</time>
      </trkpt>
      <trkpt lat="37.175352421" lon="-7.43265803926">
        <ele>17.6</ele>
        <time>2011-03-21T09:05:14Z</time>
      </trkpt>
      <trkpt lat="37.1753669216" lon="-7.43274454047">
        <ele>17.6</ele>
        <time>2011-03-21T09:05:17Z</time>
      </trkpt>
      <trkpt lat="37.1753775667" lon="-7.43280321377">
        <ele>17.6</ele>
        <time>2011-03-21T09:05:19Z</time>
      </trkpt>
      <trkpt lat="37.1753857809" lon="-7.43286138416">
        <ele>17.6</ele>
        <time>2011-03-21T09:05:21Z</time>
      </trkpt>
      <trkpt lat="37.1753943305" lon="-7.43292064419">
        <ele>17.6</ele>
        <time>2011-03-21T09:05:23Z</time>
      </trkpt>
      <trkpt lat="37.1754041373" lon="-7.43297914985">
        <ele>17.6</ele>
        <time>2011-03-21T09:05:25Z</time>
      </trkpt>
      <trkpt lat="37.1754100046" lon="-7.43303874516">
        <ele>17.6</ele>
        <time>2011-03-21T09:05:27Z</time>
      </trkpt>
      <trkpt lat="37.1754211525" lon="-7.43309817283">
        <ele>17.6</ele>
        <time>2011-03-21T09:05:29Z</time>
      </trkpt>
      <trkpt lat="37.1754335578" lon="-7.43315927688">
        <ele>17.6</ele>
        <time>2011-03-21T09:05:31Z</time>
      </trkpt>
      <trkpt lat="37.1754471364" lon="-7.433218034">
        <ele>17.6</ele>
        <time>2011-03-21T09:05:33Z</time>
      </trkpt>
      <trkpt lat="37.1754569433" lon="-7.43327645584">
        <ele>17.6</ele>
        <time>2011-03-21T09:05:35Z</time>
      </trkpt>
      <trkpt lat="37.1754641517" lon="-7.43334208612">
        <ele>17.6</ele>
        <time>2011-03-21T09:05:37Z</time>
      </trkpt>
      <trkpt lat="37.1754750482" lon="-7.43340310635">
        <ele>17.6</ele>
        <time>2011-03-21T09:05:39Z</time>
      </trkpt>
      <trkpt lat="37.1754826757" lon="-7.43346429422">
        <ele>17.6</ele>
        <time>2011-03-21T09:05:41Z</time>
      </trkpt>
      <trkpt lat="37.1754886268" lon="-7.43352606883">
        <ele>17.6</ele>
        <time>2011-03-21T09:05:43Z</time>
      </trkpt>
      <trkpt lat="37.175497344" lon="-7.43358415539">
        <ele>17.6</ele>
        <time>2011-03-21T09:05:45Z</time>
      </trkpt>
      <trkpt lat="37.1755151136" lon="-7.43367426082">
        <ele>17.6</ele>
        <time>2011-03-21T09:05:48Z</time>
      </trkpt>
      <trkpt lat="37.1755241661" lon="-7.43373578396">
        <ele>17.6</ele>
        <time>2011-03-21T09:05:50Z</time>
      </trkpt>
      <trkpt lat="37.1755359846" lon="-7.43382538648">
        <ele>17.6</ele>
        <time>2011-03-21T09:05:53Z</time>
      </trkpt>
      <trkpt lat="37.1755480545" lon="-7.433888586">
        <ele>17.6</ele>
        <time>2011-03-21T09:05:55Z</time>
      </trkpt>
      <trkpt lat="37.1755581966" lon="-7.43394742694">
        <ele>17.6</ele>
        <time>2011-03-21T09:05:57Z</time>
      </trkpt>
      <trkpt lat="37.1755650698" lon="-7.43400610024">
        <ele>17.6</ele>
        <time>2011-03-21T09:05:59Z</time>
      </trkpt>
      <trkpt lat="37.1755726973" lon="-7.4340667852">
        <ele>17.6</ele>
        <time>2011-03-21T09:06:01Z</time>
      </trkpt>
      <trkpt lat="37.1755800734" lon="-7.4341250394">
        <ele>17.6</ele>
        <time>2011-03-21T09:06:03Z</time>
      </trkpt>
      <trkpt lat="37.1755884553" lon="-7.43418572436">
        <ele>17.6</ele>
        <time>2011-03-21T09:06:05Z</time>
      </trkpt>
      <trkpt lat="37.175596921" lon="-7.43424632549">
        <ele>17.6</ele>
        <time>2011-03-21T09:06:07Z</time>
      </trkpt>
      <trkpt lat="37.1756069793" lon="-7.43430550171">
        <ele>17.6</ele>
        <time>2011-03-21T09:06:09Z</time>
      </trkpt>
      <trkpt lat="37.1756150259" lon="-7.43436844978">
        <ele>17.6</ele>
        <time>2011-03-21T09:06:11Z</time>
      </trkpt>
      <trkpt lat="37.1756232402" lon="-7.4344303082">
        <ele>17.6</ele>
        <time>2011-03-21T09:06:13Z</time>
      </trkpt>
      <trkpt lat="37.1756308677" lon="-7.43449090934">
        <ele>17.6</ele>
        <time>2011-03-21T09:06:15Z</time>
      </trkpt>
      <trkpt lat="37.1756355615" lon="-7.43455067228">
        <ele>17.6</ele>
        <time>2011-03-21T09:06:17Z</time>
      </trkpt>
      <trkpt lat="37.1756452007" lon="-7.43461244689">
        <ele>17.6</ele>
        <time>2011-03-21T09:06:19Z</time>
      </trkpt>
      <trkpt lat="37.1756529121" lon="-7.43467321566">
        <ele>17.6</ele>
        <time>2011-03-21T09:06:21Z</time>
      </trkpt>
      <trkpt lat="37.1756573545" lon="-7.43473482263">
        <ele>17.6</ele>
        <time>2011-03-21T09:06:23Z</time>
      </trkpt>
      <trkpt lat="37.1756607911" lon="-7.43479609431">
        <ele>17.6</ele>
        <time>2011-03-21T09:06:25Z</time>
      </trkpt>
      <trkpt lat="37.1756656526" lon="-7.43485929384">
        <ele>17.6</ele>
        <time>2011-03-21T09:06:27Z</time>
      </trkpt>
      <trkpt lat="37.1756717714" lon="-7.43492316392">
        <ele>17.6</ele>
        <time>2011-03-21T09:06:29Z</time>
      </trkpt>
      <trkpt lat="37.1756740345" lon="-7.43498686636">
        <ele>17.6</ele>
        <time>2011-03-21T09:06:31Z</time>
      </trkpt>
      <trkpt lat="37.1756777225" lon="-7.43504906006">
        <ele>17.6</ele>
        <time>2011-03-21T09:06:33Z</time>
      </trkpt>
      <trkpt lat="37.1756825002" lon="-7.43511116994">
        <ele>17.6</ele>
        <time>2011-03-21T09:06:35Z</time>
      </trkpt>
      <trkpt lat="37.175684428" lon="-7.43517487238">
        <ele>17.6</ele>
        <time>2011-03-21T09:06:37Z</time>
      </trkpt>
      <trkpt lat="37.1756952407" lon="-7.43532658477">
        <ele>17.6</ele>
        <time>2011-03-21T09:06:42Z</time>
      </trkpt>
      <trkpt lat="37.1756978391" lon="-7.43538752118">
        <ele>17.6</ele>
        <time>2011-03-21T09:06:44Z</time>
      </trkpt>
      <trkpt lat="37.175701108" lon="-7.43544745176">
        <ele>17.6</ele>
        <time>2011-03-21T09:06:46Z</time>
      </trkpt>
      <trkpt lat="37.1757059695" lon="-7.43550947782">
        <ele>17.6</ele>
        <time>2011-03-21T09:06:48Z</time>
      </trkpt>
      <trkpt lat="37.1757094061" lon="-7.43557351554">
        <ele>17.6</ele>
        <time>2011-03-21T09:06:50Z</time>
      </trkpt>
      <trkpt lat="37.1757093223" lon="-7.43563746944">
        <ele>17.6</ele>
        <time>2011-03-21T09:06:52Z</time>
      </trkpt>
      <trkpt lat="37.1757143514" lon="-7.43569890876">
        <ele>17.6</ele>
        <time>2011-03-21T09:06:54Z</time>
      </trkpt>
      <trkpt lat="37.1757259184" lon="-7.43578071611">
        <ele>17.6</ele>
        <time>2011-03-21T09:06:57Z</time>
      </trkpt>
      <trkpt lat="37.1757318696" lon="-7.43584089815">
        <ele>17.6</ele>
        <time>2011-03-21T09:06:59Z</time>
      </trkpt>
      <trkpt lat="37.1757393295" lon="-7.43590175074">
        <ele>17.6</ele>
        <time>2011-03-21T09:07:01Z</time>
      </trkpt>
      <trkpt lat="37.1757429337" lon="-7.43596126223">
        <ele>17.6</ele>
        <time>2011-03-21T09:07:03Z</time>
      </trkpt>
      <trkpt lat="37.1757470408" lon="-7.43602320447">
        <ele>17.6</ele>
        <time>2011-03-21T09:07:05Z</time>
      </trkpt>
      <trkpt lat="37.1757533272" lon="-7.4360828836">
        <ele>17.6</ele>
        <time>2011-03-21T09:07:07Z</time>
      </trkpt>
      <trkpt lat="37.1757684985" lon="-7.43617223466">
        <ele>17.6</ele>
        <time>2011-03-21T09:07:10Z</time>
      </trkpt>
      <trkpt lat="37.175781239" lon="-7.4362302374">
        <ele>17.6</ele>
        <time>2011-03-21T09:07:12Z</time>
      </trkpt>
      <trkpt lat="37.1757941471" lon="-7.43629100618">
        <ele>17.6</ele>
        <time>2011-03-21T09:07:14Z</time>
      </trkpt>
      <trkpt lat="37.1758049597" lon="-7.43635303224">
        <ele>17.6</ele>
        <time>2011-03-21T09:07:16Z</time>
      </trkpt>
      <trkpt lat="37.1758129225" lon="-7.4364146392">
        <ele>17.6</ele>
        <time>2011-03-21T09:07:18Z</time>
      </trkpt>
      <trkpt lat="37.1758208854" lon="-7.43647708436">
        <ele>17.6</ele>
        <time>2011-03-21T09:07:20Z</time>
      </trkpt>
      <trkpt lat="37.1758279261" lon="-7.43653693113">
        <ele>17.6</ele>
        <time>2011-03-21T09:07:22Z</time>
      </trkpt>
      <trkpt lat="37.1758350508" lon="-7.4365959397">
        <ele>17.6</ele>
        <time>2011-03-21T09:07:24Z</time>
      </trkpt>
      <trkpt lat="37.1758482942" lon="-7.43668495548">
        <ele>17.6</ele>
        <time>2011-03-21T09:07:27Z</time>
      </trkpt>
      <trkpt lat="37.1758579334" lon="-7.43677841366">
        <ele>17.6</ele>
        <time>2011-03-21T09:07:30Z</time>
      </trkpt>
      <trkpt lat="37.1758698356" lon="-7.43686684271">
        <ele>17.6</ele>
        <time>2011-03-21T09:07:33Z</time>
      </trkpt>
      <trkpt lat="37.175882157" lon="-7.43693381409">
        <ele>17.6</ele>
        <time>2011-03-21T09:07:35Z</time>
      </trkpt>
      <trkpt lat="37.1758922153" lon="-7.4369965107">
        <ele>17.6</ele>
        <time>2011-03-21T09:07:37Z</time>
      </trkpt>
      <trkpt lat="37.1758987532" lon="-7.43705803385">
        <ele>17.6</ele>
        <time>2011-03-21T09:07:39Z</time>
      </trkpt>
      <trkpt lat="37.175906716" lon="-7.43715207877">
        <ele>17.6</ele>
        <time>2011-03-21T09:07:42Z</time>
      </trkpt>
      <trkpt lat="37.1759125833" lon="-7.43721552975">
        <ele>17.6</ele>
        <time>2011-03-21T09:07:44Z</time>
      </trkpt>
      <trkpt lat="37.1759219711" lon="-7.43730471317">
        <ele>17.6</ele>
        <time>2011-03-21T09:07:47Z</time>
      </trkpt>
      <trkpt lat="37.1759304368" lon="-7.437362213">
        <ele>17.6</ele>
        <time>2011-03-21T09:07:49Z</time>
      </trkpt>
      <trkpt lat="37.175940998" lon="-7.43742256268">
        <ele>17.6</ele>
        <time>2011-03-21T09:07:51Z</time>
      </trkpt>
      <trkpt lat="37.1759430096" lon="-7.43748643276">
        <ele>17.6</ele>
        <time>2011-03-21T09:07:53Z</time>
      </trkpt>
      <trkpt lat="37.1759472006" lon="-7.43754728535">
        <ele>17.6</ele>
        <time>2011-03-21T09:07:55Z</time>
      </trkpt>
      <trkpt lat="37.1759523135" lon="-7.43760864086">
        <ele>17.6</ele>
        <time>2011-03-21T09:07:57Z</time>
      </trkpt>
      <trkpt lat="37.1759610307" lon="-7.43767175657">
        <ele>17.6</ele>
        <time>2011-03-21T09:07:59Z</time>
      </trkpt>
      <trkpt lat="37.1759661437" lon="-7.43773495609">
        <ele>17.6</ele>
        <time>2011-03-21T09:08:01Z</time>
      </trkpt>
      <trkpt lat="37.1759724301" lon="-7.43779580869">
        <ele>17.6</ele>
        <time>2011-03-21T09:08:03Z</time>
      </trkpt>
      <trkpt lat="37.1759793871" lon="-7.43785934349">
        <ele>17.6</ele>
        <time>2011-03-21T09:08:05Z</time>
      </trkpt>
      <trkpt lat="37.1759920438" lon="-7.43795431042">
        <ele>17.6</ele>
        <time>2011-03-21T09:08:08Z</time>
      </trkpt>
      <trkpt lat="37.1759992522" lon="-7.43802228762">
        <ele>17.6</ele>
        <time>2011-03-21T09:08:10Z</time>
      </trkpt>
      <trkpt lat="37.1760096457" lon="-7.43808221821">
        <ele>17.6</ele>
        <time>2011-03-21T09:08:12Z</time>
      </trkpt>
      <trkpt lat="37.176015094" lon="-7.43814558537">
        <ele>17.6</ele>
        <time>2011-03-21T09:08:14Z</time>
      </trkpt>
      <trkpt lat="37.1760202908" lon="-7.43820870108">
        <ele>17.6</ele>
        <time>2011-03-21T09:08:16Z</time>
      </trkpt>
      <trkpt lat="37.1760247332" lon="-7.43826997277">
        <ele>17.6</ele>
        <time>2011-03-21T09:08:18Z</time>
      </trkpt>
      <trkpt lat="37.1760279183" lon="-7.4383345134">
        <ele>17.6</ele>
        <time>2011-03-21T09:08:20Z</time>
      </trkpt>
      <trkpt lat="37.1760285888" lon="-7.43839771293">
        <ele>17.6</ele>
        <time>2011-03-21T09:08:22Z</time>
      </trkpt>
      <trkpt lat="37.1760288403" lon="-7.43846108009">
        <ele>17.6</ele>
        <time>2011-03-21T09:08:24Z</time>
      </trkpt>
      <trkpt lat="37.1760330312" lon="-7.43852712946">
        <ele>17.6</ele>
        <time>2011-03-21T09:08:26Z</time>
      </trkpt>
      <trkpt lat="37.1760352944" lon="-7.4385939332">
        <ele>17.6</ele>
        <time>2011-03-21T09:08:28Z</time>
      </trkpt>
      <trkpt lat="37.1760393177" lon="-7.43865931202">
        <ele>17.6</ele>
        <time>2011-03-21T09:08:30Z</time>
      </trkpt>
      <trkpt lat="37.1760388148" lon="-7.43871890733">
        <ele>17.6</ele>
        <time>2011-03-21T09:08:32Z</time>
      </trkpt>
      <trkpt lat="37.1760384795" lon="-7.43878411852">
        <ele>17.6</ele>
        <time>2011-03-21T09:08:34Z</time>
      </trkpt>
      <trkpt lat="37.1760406588" lon="-7.43885268246">
        <ele>17.6</ele>
        <time>2011-03-21T09:08:36Z</time>
      </trkpt>
      <trkpt lat="37.1760425866" lon="-7.43891546289">
        <ele>17.6</ele>
        <time>2011-03-21T09:08:38Z</time>
      </trkpt>
      <trkpt lat="37.1760444306" lon="-7.43897757277">
        <ele>17.6</ele>
        <time>2011-03-21T09:08:40Z</time>
      </trkpt>
      <trkpt lat="37.1760465261" lon="-7.43907321025">
        <ele>17.6</ele>
        <time>2011-03-21T09:08:43Z</time>
      </trkpt>
      <trkpt lat="37.1760493759" lon="-7.43913800233">
        <ele>17.6</ele>
        <time>2011-03-21T09:08:45Z</time>
      </trkpt>
      <trkpt lat="37.1760540698" lon="-7.43920002839">
        <ele>17.6</ele>
        <time>2011-03-21T09:08:47Z</time>
      </trkpt>
      <trkpt lat="37.1760583446" lon="-7.43926113244">
        <ele>17.6</ele>
        <time>2011-03-21T09:08:49Z</time>
      </trkpt>
      <trkpt lat="37.1760591828" lon="-7.43935718902">
        <ele>17.6</ele>
        <time>2011-03-21T09:08:52Z</time>
      </trkpt>
      <trkpt lat="37.1760539022" lon="-7.43942248402">
        <ele>17.6</ele>
        <time>2011-03-21T09:08:54Z</time>
      </trkpt>
      <trkpt lat="37.1760537345" lon="-7.4394876952">
        <ele>17.6</ele>
        <time>2011-03-21T09:08:56Z</time>
      </trkpt>
      <trkpt lat="37.1760581769" lon="-7.43955097855">
        <ele>17.6</ele>
        <time>2011-03-21T09:08:58Z</time>
      </trkpt>
      <trkpt lat="37.1760606077" lon="-7.43961333988">
        <ele>17.6</ele>
        <time>2011-03-21T09:09:00Z</time>
      </trkpt>
      <trkpt lat="37.1760668103" lon="-7.43967720996">
        <ele>17.6</ele>
        <time>2011-03-21T09:09:02Z</time>
      </trkpt>
      <trkpt lat="37.1760726776" lon="-7.43974057712">
        <ele>17.6</ele>
        <time>2011-03-21T09:09:04Z</time>
      </trkpt>
      <trkpt lat="37.1760782935" lon="-7.43980335756">
        <ele>17.6</ele>
        <time>2011-03-21T09:09:06Z</time>
      </trkpt>
      <trkpt lat="37.1760834065" lon="-7.43986932311">
        <ele>17.6</ele>
        <time>2011-03-21T09:09:08Z</time>
      </trkpt>
      <trkpt lat="37.1760881841" lon="-7.43993470193">
        <ele>17.6</ele>
        <time>2011-03-21T09:09:10Z</time>
      </trkpt>
      <trkpt lat="37.1760923751" lon="-7.43999865583">
        <ele>17.6</ele>
        <time>2011-03-21T09:09:12Z</time>
      </trkpt>
      <trkpt lat="37.1760896091" lon="-7.4400660463">
        <ele>17.6</ele>
        <time>2011-03-21T09:09:14Z</time>
      </trkpt>
      <trkpt lat="37.1760872621" lon="-7.44013209567">
        <ele>17.6</ele>
        <time>2011-03-21T09:09:16Z</time>
      </trkpt>
      <trkpt lat="37.1760855858" lon="-7.4401952952">
        <ele>17.6</ele>
        <time>2011-03-21T09:09:18Z</time>
      </trkpt>
      <trkpt lat="37.1760857534" lon="-7.44025975201">
        <ele>17.6</ele>
        <time>2011-03-21T09:09:20Z</time>
      </trkpt>
      <trkpt lat="37.1760896929" lon="-7.44032320299">
        <ele>17.6</ele>
        <time>2011-03-21T09:09:22Z</time>
      </trkpt>
      <trkpt lat="37.1760974042" lon="-7.44038606724">
        <ele>17.6</ele>
        <time>2011-03-21T09:09:24Z</time>
      </trkpt>
      <trkpt lat="37.176103523" lon="-7.44045044024">
        <ele>17.6</ele>
        <time>2011-03-21T09:09:26Z</time>
      </trkpt>
      <trkpt lat="37.1761099771" lon="-7.44051472941">
        <ele>17.6</ele>
        <time>2011-03-21T09:09:28Z</time>
      </trkpt>
      <trkpt lat="37.1761178561" lon="-7.44057935386">
        <ele>17.6</ele>
        <time>2011-03-21T09:09:30Z</time>
      </trkpt>
      <trkpt lat="37.1761268247" lon="-7.44063894917">
        <ele>17.6</ele>
        <time>2011-03-21T09:09:32Z</time>
      </trkpt>
      <trkpt lat="37.176133614" lon="-7.44070357362">
        <ele>17.6</ele>
        <time>2011-03-21T09:09:34Z</time>
      </trkpt>
      <trkpt lat="37.1761362124" lon="-7.44076241455">
        <ele>17.6</ele>
        <time>2011-03-21T09:09:36Z</time>
      </trkpt>
      <trkpt lat="37.1761456002" lon="-7.44082678755">
        <ele>17.6</ele>
        <time>2011-03-21T09:09:38Z</time>
      </trkpt>
      <trkpt lat="37.1761518866" lon="-7.44088680195">
        <ele>17.6</ele>
        <time>2011-03-21T09:09:40Z</time>
      </trkpt>
      <trkpt lat="37.1761593465" lon="-7.44094740309">
        <ele>17.6</ele>
        <time>2011-03-21T09:09:42Z</time>
      </trkpt>
      <trkpt lat="37.1761649623" lon="-7.44100724985">
        <ele>17.6</ele>
        <time>2011-03-21T09:09:44Z</time>
      </trkpt>
      <trkpt lat="37.1761714164" lon="-7.44106751571">
        <ele>17.6</ele>
        <time>2011-03-21T09:09:46Z</time>
      </trkpt>
      <trkpt lat="37.1761796307" lon="-7.4411578726">
        <ele>17.6</ele>
        <time>2011-03-21T09:09:49Z</time>
      </trkpt>
      <trkpt lat="37.1761853304" lon="-7.44121688117">
        <ele>17.6</ele>
        <time>2011-03-21T09:09:51Z</time>
      </trkpt>
      <trkpt lat="37.176191533" lon="-7.44127731467">
        <ele>17.6</ele>
        <time>2011-03-21T09:09:53Z</time>
      </trkpt>
      <trkpt lat="37.1761930417" lon="-7.44133598797">
        <ele>17.6</ele>
        <time>2011-03-21T09:09:55Z</time>
      </trkpt>
      <trkpt lat="37.1761981547" lon="-7.44139793021">
        <ele>17.6</ele>
        <time>2011-03-21T09:09:57Z</time>
      </trkpt>
      <trkpt lat="37.1762094702" lon="-7.44146255466">
        <ele>17.6</ele>
        <time>2011-03-21T09:09:59Z</time>
      </trkpt>
      <trkpt lat="37.1762138288" lon="-7.44152416163">
        <ele>17.6</ele>
        <time>2011-03-21T09:10:01Z</time>
      </trkpt>
      <trkpt lat="37.176218858" lon="-7.44158560095">
        <ele>17.6</ele>
        <time>2011-03-21T09:10:03Z</time>
      </trkpt>
      <trkpt lat="37.1762211211" lon="-7.44161636253">
        <ele>17.6</ele>
        <time>2011-03-21T09:10:04Z</time>
      </trkpt>
      <trkpt lat="37.1762235518" lon="-7.44164620209">
        <ele>17.6</ele>
        <time>2011-03-21T09:10:05Z</time>
      </trkpt>
      <trkpt lat="37.1762310955" lon="-7.44170588122">
        <ele>17.6</ele>
        <time>2011-03-21T09:10:07Z</time>
      </trkpt>
      <trkpt lat="37.1762396451" lon="-7.44176505743">
        <ele>17.6</ele>
        <time>2011-03-21T09:10:09Z</time>
      </trkpt>
      <trkpt lat="37.1762479432" lon="-7.44182767022">
        <ele>17.6</ele>
        <time>2011-03-21T09:10:11Z</time>
      </trkpt>
      <trkpt lat="37.1762547325" lon="-7.4418880199">
        <ele>17.6</ele>
        <time>2011-03-21T09:10:13Z</time>
      </trkpt>
      <trkpt lat="37.1762624438" lon="-7.44195004596">
        <ele>17.6</ele>
        <time>2011-03-21T09:10:15Z</time>
      </trkpt>
      <trkpt lat="37.1762688979" lon="-7.44201131765">
        <ele>17.6</ele>
        <time>2011-03-21T09:10:17Z</time>
      </trkpt>
      <trkpt lat="37.1762763578" lon="-7.44207225407">
        <ele>17.6</ele>
        <time>2011-03-21T09:10:19Z</time>
      </trkpt>
      <trkpt lat="37.1762831471" lon="-7.4421346154">
        <ele>17.6</ele>
        <time>2011-03-21T09:10:21Z</time>
      </trkpt>
      <trkpt lat="37.1762853264" lon="-7.44219571945">
        <ele>17.6</ele>
        <time>2011-03-21T09:10:23Z</time>
      </trkpt>
      <trkpt lat="37.1762909423" lon="-7.44225984099">
        <ele>17.6</ele>
        <time>2011-03-21T09:10:25Z</time>
      </trkpt>
      <trkpt lat="37.1762963905" lon="-7.44232287288">
        <ele>17.4</ele>
        <time>2011-03-21T09:10:27Z</time>
      </trkpt>
      <trkpt lat="37.1762983184" lon="-7.44238741351">
        <ele>17</ele>
        <time>2011-03-21T09:10:29Z</time>
      </trkpt>
      <trkpt lat="37.1763035152" lon="-7.44245078067">
        <ele>16.8</ele>
        <time>2011-03-21T09:10:31Z</time>
      </trkpt>
      <trkpt lat="37.1763061974" lon="-7.44251431547">
        <ele>16.6</ele>
        <time>2011-03-21T09:10:33Z</time>
      </trkpt>
      <trkpt lat="37.1763118132" lon="-7.44257877228">
        <ele>16.4</ele>
        <time>2011-03-21T09:10:35Z</time>
      </trkpt>
      <trkpt lat="37.1763171777" lon="-7.4426414689">
        <ele>16.2</ele>
        <time>2011-03-21T09:10:37Z</time>
      </trkpt>
      <trkpt lat="37.176323045" lon="-7.44270424933">
        <ele>16.2</ele>
        <time>2011-03-21T09:10:39Z</time>
      </trkpt>
      <trkpt lat="37.1763305887" lon="-7.44279904861">
        <ele>16</ele>
        <time>2011-03-21T09:10:42Z</time>
      </trkpt>
      <trkpt lat="37.176339222" lon="-7.4428642598">
        <ele>16</ele>
        <time>2011-03-21T09:10:44Z</time>
      </trkpt>
      <trkpt lat="37.1763517111" lon="-7.44295897527">
        <ele>15.8</ele>
        <time>2011-03-21T09:10:47Z</time>
      </trkpt>
      <trkpt lat="37.1763563211" lon="-7.44302116897">
        <ele>15.8</ele>
        <time>2011-03-21T09:10:49Z</time>
      </trkpt>
      <trkpt lat="37.176361015" lon="-7.44308520668">
        <ele>15.8</ele>
        <time>2011-03-21T09:10:51Z</time>
      </trkpt>
      <trkpt lat="37.1763666309" lon="-7.44314790329">
        <ele>15.8</ele>
        <time>2011-03-21T09:10:53Z</time>
      </trkpt>
      <trkpt lat="37.1763735878" lon="-7.44321210865">
        <ele>15.8</ele>
        <time>2011-03-21T09:10:55Z</time>
      </trkpt>
      <trkpt lat="37.1763836461" lon="-7.44327639782">
        <ele>15.8</ele>
        <time>2011-03-21T09:10:57Z</time>
      </trkpt>
      <trkpt lat="37.1763936206" lon="-7.44333800479">
        <ele>15.8</ele>
        <time>2011-03-21T09:10:59Z</time>
      </trkpt>
      <trkpt lat="37.1764001585" lon="-7.44340212632">
        <ele>15.8</ele>
        <time>2011-03-21T09:11:01Z</time>
      </trkpt>
      <trkpt lat="37.1764065287" lon="-7.44346574494">
        <ele>15.8</ele>
        <time>2011-03-21T09:11:03Z</time>
      </trkpt>
      <trkpt lat="37.1764164193" lon="-7.44352869301">
        <ele>15.8</ele>
        <time>2011-03-21T09:11:05Z</time>
      </trkpt>
      <trkpt lat="37.1764292437" lon="-7.4435917249">
        <ele>15.8</ele>
        <time>2011-03-21T09:11:07Z</time>
      </trkpt>
      <trkpt lat="37.1764441634" lon="-7.4436503982">
        <ele>15.6</ele>
        <time>2011-03-21T09:11:09Z</time>
      </trkpt>
      <trkpt lat="37.1764699797" lon="-7.44373572594">
        <ele>15.6</ele>
        <time>2011-03-21T09:11:12Z</time>
      </trkpt>
      <trkpt lat="37.1764885037" lon="-7.44379406396">
        <ele>15.6</ele>
        <time>2011-03-21T09:11:14Z</time>
      </trkpt>
      <trkpt lat="37.1765145714" lon="-7.44387302146">
        <ele>15.6</ele>
        <time>2011-03-21T09:11:17Z</time>
      </trkpt>
      <trkpt lat="37.1765460873" lon="-7.44395139223">
        <ele>15.6</ele>
        <time>2011-03-21T09:11:20Z</time>
      </trkpt>
      <trkpt lat="37.1765815428" lon="-7.44402624259">
        <ele>15.6</ele>
        <time>2011-03-21T09:11:23Z</time>
      </trkpt>
      <trkpt lat="37.1766159924" lon="-7.44408567027">
        <ele>15.6</ele>
        <time>2011-03-21T09:11:26Z</time>
      </trkpt>
      <trkpt lat="37.1766271403" lon="-7.44409966804">
        <ele>15.6</ele>
        <time>2011-03-21T09:11:27Z</time>
      </trkpt>
    </trkseg>
  </trk>
</gpx>